Time,TemperatureF,DewpointF,PressureIn,WindDirection,WindDirectionDegrees,WindSpeedMPH,WindSpeedGustMPH,Humidity,HourlyPrecipIn,Conditions,Clouds,dailyrainin,SoftwareType,DateUTC
2013-08-03 00:00:00,71.6,69.5,30.07,West,270,0.0,0.0,93,0.00,FEW,OVC,0.00,WeatherDisplay:10.37,2013-08-03 04:00:00,
2013-08-03 00:01:00,71.6,69.5,30.07,West,270,0.0,0.0,93,0.00,FEW,OVC,0.00,WeatherDisplay:10.37,2013-08-03 04:01:00,
2013-08-03 00:02:00,71.5,69.4,30.07,West,270,0.0,0.0,93,0.00,SCT,OVC,0.00,WeatherDisplay:10.37,2013-08-03 04:02:00,
2013-08-03 00:07:00,71.3,69.2,30.07,West,270,0.0,0.0,93,0.00,SCT,OVC,0.00,WeatherDisplay:10.37,2013-08-03 04:07:00,
2013-08-03 00:08:00,71.3,68.9,30.06,West,270,0.0,0.0,92,0.00,SCT,OVC,0.00,WeatherDisplay:10.37,2013-08-03 04:08:00,
2013-08-03 00:12:00,71.1,69.0,30.06,West,270,0.0,0.0,93,0.00,SCT,OVC,0.00,WeatherDisplay:10.37,2013-08-03 04:12:00,
2013-08-03 00:13:00,70.9,68.8,30.06,West,270,0.0,0.0,93,0.00,SCT,OVC,0.00,WeatherDisplay:10.37,2013-08-03 04:13:00,
2013-08-03 00:14:00,70.9,68.8,30.06,West,270,0.0,0.0,93,0.00,SCT,OVC,0.00,WeatherDisplay:10.37,2013-08-03 04:14:00,
2013-08-03 00:15:00,70.8,68.7,30.06,West,270,0.0,0.0,93,0.00,SCT,OVC,0.00,WeatherDisplay:10.37,2013-08-03 04:15:00,
2013-08-03 00:18:00,70.8,68.7,30.06,West,270,0.0,0.0,93,0.00,SCT,OVC,0.00,WeatherDisplay:10.37,2013-08-03 04:18:00,
2013-08-03 00:19:00,70.8,68.7,30.06,West,270,0.0,0.0,93,0.00,SCT,OVC,0.00,WeatherDisplay:10.37,2013-08-03 04:19:00,
2013-08-03 00:20:00,70.6,68.5,30.06,West,270,0.0,0.0,93,0.00,SCT,OVC,0.00,WeatherDisplay:10.37,2013-08-03 04:20:00,
2013-08-03 00:22:00,70.6,68.5,30.06,West,270,0.0,0.0,93,0.00,SCT,OVC,0.00,WeatherDisplay:10.37,2013-08-03 04:22:00,
2013-08-03 00:25:00,70.6,68.8,30.06,West,270,0.0,0.0,94,0.00,SCT,OVC,0.00,WeatherDisplay:10.37,2013-08-03 04:25:00,
2013-08-03 00:27:00,70.6,68.8,30.06,West,270,0.0,0.0,94,0.00,SCT,OVC,0.00,WeatherDisplay:10.37,2013-08-03 04:27:00,
2013-08-03 00:28:00,70.6,68.8,30.06,West,270,0.0,0.0,94,0.00,SCT,OVC,0.00,WeatherDisplay:10.37,2013-08-03 04:28:00,
2013-08-03 00:31:00,70.6,68.8,30.06,West,270,0.0,0.0,94,0.00,SCT,OVC,0.00,WeatherDisplay:10.37,2013-08-03 04:31:00,
2013-08-03 00:32:00,70.6,68.8,30.06,West,270,0.0,0.0,94,0.00,SCT,OVC,0.00,WeatherDisplay:10.37,2013-08-03 04:32:00,
2013-08-03 00:34:00,70.6,68.8,30.06,West,270,0.0,0.0,94,0.00,SCT,OVC,0.00,WeatherDisplay:10.37,2013-08-03 04:34:00,
2013-08-03 00:36:00,70.6,68.8,30.06,West,270,0.0,0.0,94,0.00,SCT,OVC,0.00,WeatherDisplay:10.37,2013-08-03 04:36:00,
2013-08-03 00:37:00,70.6,68.8,30.06,West,270,0.0,0.0,94,0.00,SCT,OVC,0.00,WeatherDisplay:10.37,2013-08-03 04:37:00,
2013-08-03 00:38:00,70.6,68.8,30.06,West,270,0.0,0.0,94,0.00,SCT,OVC,0.00,WeatherDisplay:10.37,2013-08-03 04:38:00,
2013-08-03 00:39:00,70.6,68.8,30.06,West,270,0.0,0.0,94,0.00,SCT,OVC,0.00,WeatherDisplay:10.37,2013-08-03 04:39:00,
2013-08-03 00:40:00,70.6,68.8,30.06,West,270,0.0,0.0,94,0.00,SCT,OVC,0.00,WeatherDisplay:10.37,2013-08-03 04:40:00,
2013-08-03 00:43:00,70.6,68.8,30.06,West,270,0.0,0.0,94,0.00,SCT,OVC,0.00,WeatherDisplay:10.37,2013-08-03 04:43:00,
2013-08-03 00:44:00,70.6,68.8,30.06,West,270,0.0,0.0,94,0.00,SCT,OVC,0.00,WeatherDisplay:10.37,2013-08-03 04:44:00,
2013-08-03 00:49:00,70.6,68.8,30.06,West,270,0.0,0.0,94,0.00,SCT,OVC,0.00,WeatherDisplay:10.37,2013-08-03 04:49:00,
2013-08-03 00:50:00,70.6,68.8,30.06,West,270,0.0,0.0,94,0.00,SCT,OVC,0.00,WeatherDisplay:10.37,2013-08-03 04:50:00,
2013-08-03 00:51:00,70.6,68.8,30.06,West,270,0.0,0.0,94,0.00,SCT,OVC,0.00,WeatherDisplay:10.37,2013-08-03 04:51:00,
2013-08-03 00:55:00,70.6,68.8,30.06,West,270,0.0,0.0,94,0.00,SCT,OVC,0.00,WeatherDisplay:10.37,2013-08-03 04:55:00,
2013-08-03 00:56:00,70.6,68.8,30.06,West,270,0.0,0.0,94,0.00,SCT,OVC,0.00,WeatherDisplay:10.37,2013-08-03 04:56:00,
2013-08-03 00:57:00,70.6,68.8,30.06,West,270,0.0,0.0,94,0.00,SCT,OVC,0.00,WeatherDisplay:10.37,2013-08-03 04:57:00,
2013-08-03 00:58:00,70.4,68.6,30.06,West,270,0.0,0.0,94,0.00,SCT,OVC,0.00,WeatherDisplay:10.37,2013-08-03 04:58:00,
2013-08-03 00:59:00,70.4,68.6,30.06,West,270,0.0,0.0,94,0.00,SCT,OVC,0.00,WeatherDisplay:10.37,2013-08-03 04:59:00,
2013-08-03 01:01:00,70.4,68.6,30.06,West,270,0.0,0.0,94,0.00,FEW,OVC,0.00,WeatherDisplay:10.37,2013-08-03 05:01:00,
2013-08-03 01:02:00,70.4,68.9,30.06,West,270,0.0,0.0,95,0.00,FEW,OVC,0.00,WeatherDisplay:10.37,2013-08-03 05:02:00,
2013-08-03 01:03:00,70.6,69.1,30.06,West,270,0.0,0.0,95,0.00,FEW,OVC,0.00,WeatherDisplay:10.37,2013-08-03 05:03:00,
2013-08-03 01:04:00,70.6,69.1,30.06,West,270,0.0,0.0,95,0.00,FEW,OVC,0.00,WeatherDisplay:10.37,2013-08-03 05:04:00,
2013-08-03 01:05:00,70.6,69.1,30.06,West,270,0.0,0.0,95,0.00,FEW,OVC,0.00,WeatherDisplay:10.37,2013-08-03 05:05:00,
2013-08-03 01:07:00,70.6,69.1,30.06,West,270,0.0,0.0,95,0.00,FEW,OVC,0.00,WeatherDisplay:10.37,2013-08-03 05:07:00,
2013-08-03 01:08:00,70.6,68.8,30.06,West,270,0.0,0.0,94,0.00,FEW,OVC,0.00,WeatherDisplay:10.37,2013-08-03 05:08:00,
2013-08-03 01:10:00,70.6,68.8,30.06,West,270,0.0,0.0,94,0.00,FEW,OVC,0.00,WeatherDisplay:10.37,2013-08-03 05:10:00,
2013-08-03 01:11:00,70.4,68.6,30.06,West,270,0.0,0.0,94,0.00,FEW,OVC,0.00,WeatherDisplay:10.37,2013-08-03 05:11:00,
2013-08-03 01:12:00,70.4,68.6,30.06,West,270,0.0,0.0,94,0.00,FEW,OVC,0.00,WeatherDisplay:10.37,2013-08-03 05:12:00,
2013-08-03 01:13:00,70.3,68.5,30.06,West,270,0.0,0.0,94,0.00,FEW,OVC,0.00,WeatherDisplay:10.37,2013-08-03 05:13:00,
2013-08-03 01:14:00,70.3,68.5,30.06,West,270,0.0,0.0,94,0.00,FEW,OVC,0.00,WeatherDisplay:10.37,2013-08-03 05:14:00,
2013-08-03 01:16:00,70.1,68.3,30.06,West,270,0.0,0.0,94,0.00,FEW,OVC,0.00,WeatherDisplay:10.37,2013-08-03 05:16:00,
2013-08-03 01:18:00,69.9,68.1,30.06,West,270,0.0,0.0,94,0.00,FEW,OVC,0.00,WeatherDisplay:10.37,2013-08-03 05:18:00,
2013-08-03 01:19:00,69.9,68.1,30.06,West,270,0.0,0.0,94,0.00,FEW,OVC,0.00,WeatherDisplay:10.37,2013-08-03 05:19:00,
2013-08-03 01:22:00,69.9,68.1,30.06,West,270,0.0,0.0,94,0.00,FEW,OVC,0.00,WeatherDisplay:10.37,2013-08-03 05:22:00,
2013-08-03 01:24:00,70.1,68.6,30.06,West,270,0.0,0.0,95,0.00,FEW,OVC,0.00,WeatherDisplay:10.37,2013-08-03 05:24:00,
2013-08-03 01:25:00,70.1,68.6,30.06,West,270,0.0,0.0,95,0.00,FEW,OVC,0.00,WeatherDisplay:10.37,2013-08-03 05:25:00,
2013-08-03 01:26:00,70.1,68.6,30.06,West,270,0.0,0.0,95,0.00,FEW,OVC,0.00,WeatherDisplay:10.37,2013-08-03 05:26:00,
2013-08-03 01:27:00,70.1,68.6,30.06,West,270,0.0,0.0,95,0.00,FEW,OVC,0.00,WeatherDisplay:10.37,2013-08-03 05:27:00,
2013-08-03 01:29:00,70.1,68.6,30.06,West,270,0.0,0.0,95,0.00,FEW,OVC,0.00,WeatherDisplay:10.37,2013-08-03 05:29:00,
2013-08-03 01:30:00,70.1,68.6,30.06,West,270,0.0,0.0,95,0.00,FEW,OVC,0.00,WeatherDisplay:10.37,2013-08-03 05:30:00,
2013-08-03 01:31:00,70.1,68.6,30.06,West,270,0.0,0.0,95,0.00,FEW,OVC,0.00,WeatherDisplay:10.37,2013-08-03 05:31:00,
2013-08-03 01:32:00,70.1,68.6,30.06,West,270,0.0,0.0,95,0.00,FEW,OVC,0.00,WeatherDisplay:10.37,2013-08-03 05:32:00,
2013-08-03 01:34:00,70.1,68.6,30.06,West,270,0.0,0.0,95,0.00,FEW,OVC,0.00,WeatherDisplay:10.37,2013-08-03 05:34:00,
2013-08-03 01:35:00,70.1,68.6,30.06,West,270,0.0,0.0,95,0.00,FEW,OVC,0.00,WeatherDisplay:10.37,2013-08-03 05:35:00,
2013-08-03 01:36:00,69.9,68.4,30.06,West,270,0.0,0.0,95,0.00,FEW,OVC,0.00,WeatherDisplay:10.37,2013-08-03 05:36:00,
2013-08-03 01:38:00,69.9,68.4,30.06,West,270,0.0,0.0,95,0.00,FEW,OVC,0.00,WeatherDisplay:10.37,2013-08-03 05:38:00,
2013-08-03 01:39:00,69.9,68.4,30.06,West,270,0.0,0.0,95,0.00,FEW,OVC,0.00,WeatherDisplay:10.37,2013-08-03 05:39:00,
2013-08-03 01:40:00,69.9,68.4,30.06,West,270,0.0,0.0,95,0.00,FEW,OVC,0.00,WeatherDisplay:10.37,2013-08-03 05:40:00,
2013-08-03 01:42:00,69.8,68.3,30.06,West,270,0.0,0.0,95,0.00,FEW,OVC,0.00,WeatherDisplay:10.37,2013-08-03 05:42:00,
2013-08-03 01:44:00,69.8,68.3,30.06,West,270,0.0,0.0,95,0.00,FEW,OVC,0.00,WeatherDisplay:10.37,2013-08-03 05:44:00,
2013-08-03 01:45:00,69.8,68.3,30.06,West,270,0.0,0.0,95,0.00,FEW,OVC,0.00,WeatherDisplay:10.37,2013-08-03 05:45:00,
2013-08-03 01:48:00,69.8,68.3,30.06,West,270,0.0,0.0,95,0.00,FEW,OVC,0.00,WeatherDisplay:10.37,2013-08-03 05:48:00,
2013-08-03 01:50:00,69.8,68.3,30.06,West,270,0.0,0.0,95,0.00,FEW,OVC,0.00,WeatherDisplay:10.37,2013-08-03 05:50:00,
2013-08-03 01:51:00,69.8,68.3,30.06,West,270,0.0,0.0,95,0.00,FEW,OVC,0.00,WeatherDisplay:10.37,2013-08-03 05:51:00,
2013-08-03 01:54:00,69.6,68.1,30.06,West,270,0.0,0.0,95,0.00,FEW,OVC,0.00,WeatherDisplay:10.37,2013-08-03 05:54:00,
2013-08-03 01:55:00,69.6,68.1,30.06,West,270,0.0,0.0,95,0.00,FEW,OVC,0.00,WeatherDisplay:10.37,2013-08-03 05:55:00,
2013-08-03 01:56:00,69.6,68.1,30.06,West,270,0.0,0.0,95,0.00,FEW,OVC,0.00,WeatherDisplay:10.37,2013-08-03 05:56:00,
2013-08-03 01:57:00,69.6,68.1,30.06,West,270,0.0,0.0,95,0.00,FEW,OVC,0.00,WeatherDisplay:10.37,2013-08-03 05:57:00,
2013-08-03 01:59:00,69.4,67.9,30.06,West,270,0.0,0.0,95,0.00,FEW,OVC,0.00,WeatherDisplay:10.37,2013-08-03 05:59:00,
2013-08-03 02:00:00,69.4,67.9,30.06,West,270,0.0,0.0,95,0.00,FEW,OVC,0.00,WeatherDisplay:10.37,2013-08-03 06:00:00,
2013-08-03 02:02:00,69.4,67.9,30.06,West,270,0.0,0.0,95,0.00,FEW,OVC,0.00,WeatherDisplay:10.37,2013-08-03 06:02:00,
2013-08-03 02:03:00,69.4,67.9,30.06,West,270,0.0,0.0,95,0.00,FEW,OVC,0.00,WeatherDisplay:10.37,2013-08-03 06:03:00,
2013-08-03 02:05:00,69.4,67.9,30.06,West,270,0.0,0.0,95,0.00,FEW,OVC,0.00,WeatherDisplay:10.37,2013-08-03 06:05:00,
2013-08-03 02:07:00,69.4,67.9,30.06,West,270,0.0,0.0,95,0.00,FEW,OVC,0.00,WeatherDisplay:10.37,2013-08-03 06:07:00,
2013-08-03 02:08:00,69.4,67.9,30.06,West,270,0.0,0.0,95,0.00,FEW,OVC,0.00,WeatherDisplay:10.37,2013-08-03 06:08:00,
2013-08-03 02:09:00,69.4,67.9,30.06,West,270,0.0,0.0,95,0.00,FEW,OVC,0.00,WeatherDisplay:10.37,2013-08-03 06:09:00,
2013-08-03 02:11:00,69.4,68.2,30.06,West,270,0.0,0.0,96,0.00,FEW,OVC,0.00,WeatherDisplay:10.37,2013-08-03 06:11:00,
2013-08-03 02:13:00,69.4,68.2,30.06,West,270,0.0,0.0,96,0.00,FEW,OVC,0.00,WeatherDisplay:10.37,2013-08-03 06:13:00,
2013-08-03 02:14:00,69.4,67.9,30.06,West,270,0.0,0.0,95,0.00,FEW,OVC,0.00,WeatherDisplay:10.37,2013-08-03 06:14:00,
2013-08-03 02:18:00,69.4,67.9,30.06,West,270,0.0,0.0,95,0.00,FEW,OVC,0.00,WeatherDisplay:10.37,2013-08-03 06:18:00,
2013-08-03 02:19:00,69.4,67.9,30.06,West,270,0.0,0.0,95,0.00,FEW,OVC,0.00,WeatherDisplay:10.37,2013-08-03 06:19:00,
2013-08-03 02:21:00,69.3,68.1,30.06,West,270,0.0,0.0,96,0.00,FEW,OVC,0.00,WeatherDisplay:10.37,2013-08-03 06:21:00,
2013-08-03 02:23:00,69.3,68.1,30.06,West,269,0.0,0.0,96,0.00,FEW,OVC,0.00,WeatherDisplay:10.37,2013-08-03 06:23:00,
2013-08-03 02:25:00,69.4,68.2,30.06,West,270,0.0,0.0,96,0.00,FEW,OVC,0.00,WeatherDisplay:10.37,2013-08-03 06:25:00,
2013-08-03 02:26:00,69.4,68.2,30.06,West,270,0.0,0.0,96,0.00,FEW,OVC,0.00,WeatherDisplay:10.37,2013-08-03 06:26:00,
2013-08-03 02:27:00,69.4,68.2,30.06,West,270,0.0,0.0,96,0.00,FEW,OVC,0.00,WeatherDisplay:10.37,2013-08-03 06:27:00,
2013-08-03 02:31:00,69.3,68.1,30.06,West,270,0.0,0.0,96,0.00,FEW,OVC,0.00,WeatherDisplay:10.37,2013-08-03 06:31:00,
2013-08-03 02:32:00,69.3,68.1,30.06,West,270,0.0,0.0,96,0.00,FEW,OVC,0.00,WeatherDisplay:10.37,2013-08-03 06:32:00,
2013-08-03 02:33:00,69.1,67.6,30.06,West,270,0.0,0.0,95,0.00,FEW,OVC,0.00,WeatherDisplay:10.37,2013-08-03 06:33:00,
2013-08-03 02:37:00,69.1,67.9,30.06,West,270,0.0,0.0,96,0.00,FEW,OVC,0.00,WeatherDisplay:10.37,2013-08-03 06:37:00,
2013-08-03 02:38:00,69.1,67.9,30.05,West,270,0.0,0.0,96,0.00,FEW,OVC,0.00,WeatherDisplay:10.37,2013-08-03 06:38:00,
2013-08-03 02:41:00,68.9,67.7,30.05,West,270,0.0,0.0,96,0.00,FEW,OVC,0.00,WeatherDisplay:10.37,2013-08-03 06:41:00,
2013-08-03 02:43:00,68.9,67.7,30.05,West,270,0.0,0.0,96,0.00,FEW,OVC,0.00,WeatherDisplay:10.37,2013-08-03 06:43:00,
2013-08-03 02:44:00,68.9,67.7,30.05,West,270,0.0,0.0,96,0.00,FEW,OVC,0.00,WeatherDisplay:10.37,2013-08-03 06:44:00,
2013-08-03 02:45:00,68.9,67.7,30.05,West,270,0.0,0.0,96,0.00,FEW,OVC,0.00,WeatherDisplay:10.37,2013-08-03 06:45:00,
2013-08-03 02:47:00,68.9,67.7,30.05,West,270,0.0,0.0,96,0.00,FEW,OVC,0.00,WeatherDisplay:10.37,2013-08-03 06:47:00,
2013-08-03 02:48:00,69.1,67.9,30.05,West,270,0.0,0.0,96,0.00,FEW,OVC,0.00,WeatherDisplay:10.37,2013-08-03 06:48:00,
2013-08-03 02:49:00,69.1,67.9,30.05,West,270,0.0,0.0,96,0.00,FEW,OVC,0.00,WeatherDisplay:10.37,2013-08-03 06:49:00,
2013-08-03 02:50:00,69.1,67.9,30.05,West,270,0.0,0.0,96,0.00,FEW,OVC,0.00,WeatherDisplay:10.37,2013-08-03 06:50:00,
2013-08-03 02:53:00,69.1,67.9,30.05,West,270,0.0,0.0,96,0.00,FEW,OVC,0.00,WeatherDisplay:10.37,2013-08-03 06:53:00,
2013-08-03 02:54:00,69.1,67.9,30.05,West,270,0.0,0.0,96,0.00,FEW,OVC,0.00,WeatherDisplay:10.37,2013-08-03 06:54:00,
2013-08-03 02:56:00,69.1,67.9,30.05,West,270,0.0,0.0,96,0.00,FEW,OVC,0.00,WeatherDisplay:10.37,2013-08-03 06:56:00,
2013-08-03 02:57:00,69.1,67.9,30.05,West,270,0.0,0.0,96,0.00,FEW,OVC,0.00,WeatherDisplay:10.37,2013-08-03 06:57:00,
2013-08-03 02:59:00,69.1,67.9,30.05,West,270,0.0,0.0,96,0.00,FEW,OVC,0.00,WeatherDisplay:10.37,2013-08-03 06:59:00,
2013-08-03 03:00:00,69.1,67.9,30.05,West,270,0.0,0.0,96,0.00,FEW,OVC,0.00,WeatherDisplay:10.37,2013-08-03 07:00:00,
2013-08-03 03:02:00,69.1,67.9,30.05,West,270,0.0,0.0,96,0.00,SCT,OVC,0.00,WeatherDisplay:10.37,2013-08-03 07:02:00,
2013-08-03 03:04:00,69.1,67.9,30.05,West,270,0.0,0.0,96,0.00,SCT,OVC,0.00,WeatherDisplay:10.37,2013-08-03 07:04:00,
2013-08-03 03:05:00,69.1,67.9,30.05,West,270,0.0,0.0,96,0.00,SCT,OVC,0.00,WeatherDisplay:10.37,2013-08-03 07:05:00,
2013-08-03 03:06:00,69.1,67.9,30.05,West,270,0.0,0.0,96,0.00,SCT,OVC,0.00,WeatherDisplay:10.37,2013-08-03 07:06:00,
2013-08-03 03:07:00,69.1,67.9,30.05,West,270,0.0,0.0,96,0.00,SCT,OVC,0.00,WeatherDisplay:10.37,2013-08-03 07:07:00,
2013-08-03 03:08:00,68.9,67.7,30.05,West,270,0.0,0.0,96,0.00,SCT,OVC,0.00,WeatherDisplay:10.37,2013-08-03 07:08:00,
2013-08-03 03:10:00,68.8,67.6,30.05,West,270,0.0,0.0,96,0.00,SCT,OVC,0.00,WeatherDisplay:10.37,2013-08-03 07:10:00,
2013-08-03 03:12:00,68.8,67.6,30.05,West,270,0.0,0.0,96,0.00,SCT,OVC,0.00,WeatherDisplay:10.37,2013-08-03 07:12:00,
2013-08-03 03:14:00,68.8,67.6,30.05,West,270,0.0,0.0,96,0.00,SCT,OVC,0.00,WeatherDisplay:10.37,2013-08-03 07:14:00,
2013-08-03 03:15:00,68.9,67.7,30.05,West,270,0.0,0.0,96,0.00,SCT,OVC,0.00,WeatherDisplay:10.37,2013-08-03 07:15:00,
2013-08-03 03:16:00,68.9,67.7,30.05,West,270,0.0,0.0,96,0.00,SCT,OVC,0.00,WeatherDisplay:10.37,2013-08-03 07:16:00,
2013-08-03 03:17:00,68.9,67.7,30.05,West,270,0.0,0.0,96,0.00,SCT,OVC,0.00,WeatherDisplay:10.37,2013-08-03 07:17:00,
2013-08-03 03:18:00,68.9,67.7,30.05,West,270,0.0,0.0,96,0.00,SCT,OVC,0.00,WeatherDisplay:10.37,2013-08-03 07:18:00,
2013-08-03 03:19:00,68.9,67.7,30.05,West,270,0.0,0.0,96,0.00,SCT,OVC,0.00,WeatherDisplay:10.37,2013-08-03 07:19:00,
2013-08-03 03:23:00,68.8,67.6,30.05,West,270,0.0,0.0,96,0.00,SCT,OVC,0.00,WeatherDisplay:10.37,2013-08-03 07:23:00,
2013-08-03 03:24:00,68.8,67.6,30.04,West,270,0.0,0.0,96,0.00,SCT,OVC,0.00,WeatherDisplay:10.37,2013-08-03 07:24:00,
2013-08-03 03:26:00,68.8,67.6,30.04,West,270,0.0,0.0,96,0.00,SCT,OVC,0.00,WeatherDisplay:10.37,2013-08-03 07:26:00,
2013-08-03 03:28:00,68.8,67.6,30.04,West,270,0.0,0.0,96,0.00,SCT,OVC,0.00,WeatherDisplay:10.37,2013-08-03 07:28:00,
2013-08-03 03:29:00,68.6,67.4,30.04,West,270,0.0,0.0,96,0.00,SCT,OVC,0.00,WeatherDisplay:10.37,2013-08-03 07:29:00,
2013-08-03 03:30:00,68.7,67.5,30.04,West,270,0.0,0.0,96,0.00,SCT,OVC,0.00,WeatherDisplay:10.37,2013-08-03 07:30:00,
2013-08-03 03:32:00,68.6,67.4,30.04,West,270,0.0,0.0,96,0.00,SCT,OVC,0.00,WeatherDisplay:10.37,2013-08-03 07:32:00,
2013-08-03 03:33:00,68.6,67.4,30.04,West,270,0.0,0.0,96,0.00,SCT,OVC,0.00,WeatherDisplay:10.37,2013-08-03 07:33:00,
2013-08-03 03:34:00,68.6,67.4,30.04,West,270,0.0,0.0,96,0.00,SCT,OVC,0.00,WeatherDisplay:10.37,2013-08-03 07:34:00,
2013-08-03 03:35:00,68.6,67.4,30.04,West,270,0.0,0.0,96,0.00,SCT,OVC,0.00,WeatherDisplay:10.37,2013-08-03 07:35:00,
2013-08-03 03:36:00,68.6,67.4,30.04,West,270,0.0,0.0,96,0.00,SCT,OVC,0.00,WeatherDisplay:10.37,2013-08-03 07:36:00,
2013-08-03 03:37:00,68.6,67.4,30.04,West,270,0.0,0.0,96,0.00,SCT,OVC,0.00,WeatherDisplay:10.37,2013-08-03 07:37:00,
2013-08-03 03:39:00,68.8,67.6,30.03,West,270,0.0,0.0,96,0.00,SCT,OVC,0.00,WeatherDisplay:10.37,2013-08-03 07:39:00,
2013-08-03 03:40:00,68.8,67.6,30.03,West,270,0.0,0.0,96,0.00,SCT,OVC,0.00,WeatherDisplay:10.37,2013-08-03 07:40:00,
2013-08-03 03:41:00,68.8,67.6,30.03,West,270,0.0,0.0,96,0.00,SCT,OVC,0.00,WeatherDisplay:10.37,2013-08-03 07:41:00,
2013-08-03 03:44:00,68.8,67.6,30.03,West,270,0.0,0.0,96,0.00,SCT,OVC,0.00,WeatherDisplay:10.37,2013-08-03 07:44:00,
2013-08-03 03:47:00,68.6,67.4,30.03,West,270,0.0,0.0,96,0.00,SCT,OVC,0.00,WeatherDisplay:10.37,2013-08-03 07:47:00,
2013-08-03 03:48:00,68.6,67.4,30.03,West,270,0.0,0.0,96,0.00,SCT,OVC,0.00,WeatherDisplay:10.37,2013-08-03 07:48:00,
2013-08-03 03:49:00,68.6,67.4,30.03,West,270,0.0,0.0,96,0.00,SCT,OVC,0.00,WeatherDisplay:10.37,2013-08-03 07:49:00,
2013-08-03 03:52:00,68.6,67.4,30.03,West,270,0.0,0.0,96,0.00,SCT,OVC,0.00,WeatherDisplay:10.37,2013-08-03 07:52:00,
2013-08-03 03:53:00,68.6,67.4,30.03,West,270,0.0,0.0,96,0.00,SCT,OVC,0.00,WeatherDisplay:10.37,2013-08-03 07:53:00,
2013-08-03 03:54:00,68.6,67.4,30.03,West,270,0.0,0.0,96,0.00,SCT,OVC,0.00,WeatherDisplay:10.37,2013-08-03 07:54:00,
2013-08-03 03:56:00,68.6,67.7,30.03,West,270,0.0,0.0,97,0.00,SCT,OVC,0.00,WeatherDisplay:10.37,2013-08-03 07:56:00,
2013-08-03 03:57:00,68.6,67.7,30.03,West,270,0.0,0.0,97,0.00,SCT,OVC,0.00,WeatherDisplay:10.37,2013-08-03 07:57:00,
2013-08-03 03:59:00,68.6,67.4,30.03,West,270,0.0,0.0,96,0.00,SCT,OVC,0.00,WeatherDisplay:10.37,2013-08-03 07:59:00,
2013-08-03 04:00:00,68.6,67.4,30.03,West,270,0.0,0.0,96,0.00,SCT,OVC,0.00,WeatherDisplay:10.37,2013-08-03 08:00:00,
2013-08-03 04:01:00,68.6,67.7,30.03,West,270,0.0,0.0,97,0.00,BKN,OVC,0.00,WeatherDisplay:10.37,2013-08-03 08:01:00,
2013-08-03 04:02:00,68.6,67.7,30.03,West,270,0.0,0.0,97,0.00,BKN,OVC,0.00,WeatherDisplay:10.37,2013-08-03 08:02:00,
2013-08-03 04:03:00,68.6,67.7,30.03,West,270,0.0,0.0,97,0.00,BKN,OVC,0.00,WeatherDisplay:10.37,2013-08-03 08:03:00,
2013-08-03 04:06:00,68.6,67.7,30.03,West,270,0.0,0.0,97,0.00,BKN,OVC,0.00,WeatherDisplay:10.37,2013-08-03 08:06:00,
2013-08-03 04:07:00,68.6,67.7,30.03,West,270,0.0,0.0,97,0.00,BKN,OVC,0.00,WeatherDisplay:10.37,2013-08-03 08:07:00,
2013-08-03 04:08:00,68.8,67.9,30.03,West,270,0.0,0.0,97,0.00,BKN,OVC,0.00,WeatherDisplay:10.37,2013-08-03 08:08:00,
2013-08-03 04:12:00,68.8,67.9,30.03,West,270,0.0,0.0,97,0.00,BKN,OVC,0.00,WeatherDisplay:10.37,2013-08-03 08:12:00,
2013-08-03 04:13:00,68.8,67.9,30.03,West,270,0.0,0.0,97,0.00,BKN,OVC,0.00,WeatherDisplay:10.37,2013-08-03 08:13:00,
2013-08-03 04:14:00,68.6,67.7,30.03,West,270,0.0,0.0,97,0.00,BKN,OVC,0.00,WeatherDisplay:10.37,2013-08-03 08:14:00,
2013-08-03 04:15:00,68.6,67.4,30.03,West,270,0.0,0.0,96,0.00,BKN,OVC,0.00,WeatherDisplay:10.37,2013-08-03 08:15:00,
2013-08-03 04:17:00,68.4,67.2,30.03,West,270,0.0,0.0,96,0.00,BKN,OVC,0.00,WeatherDisplay:10.37,2013-08-03 08:17:00,
2013-08-03 04:19:00,68.4,67.5,30.03,West,270,0.0,0.0,97,0.00,BKN,OVC,0.00,WeatherDisplay:10.37,2013-08-03 08:19:00,
2013-08-03 04:22:00,68.4,67.5,30.03,West,270,0.0,0.0,97,0.00,BKN,OVC,0.00,WeatherDisplay:10.37,2013-08-03 08:22:00,
2013-08-03 04:23:00,68.4,67.5,30.03,West,270,0.0,0.0,97,0.00,BKN,OVC,0.00,WeatherDisplay:10.37,2013-08-03 08:23:00,
2013-08-03 04:24:00,68.4,67.5,30.03,West,270,0.0,0.0,97,0.00,BKN,OVC,0.00,WeatherDisplay:10.37,2013-08-03 08:24:00,
2013-08-03 04:26:00,68.3,67.4,30.03,West,270,0.0,0.0,97,0.00,BKN,OVC,0.00,WeatherDisplay:10.37,2013-08-03 08:26:00,
2013-08-03 04:28:00,68.3,67.4,30.03,West,270,0.0,0.0,97,0.00,BKN,OVC,0.00,WeatherDisplay:10.37,2013-08-03 08:28:00,
2013-08-03 04:29:00,68.3,67.4,30.03,West,270,2.3,3.5,97,0.00,BKN,OVC,0.00,WeatherDisplay:10.37,2013-08-03 08:29:00,
2013-08-03 04:30:00,68.3,67.4,30.03,West,270,2.0,4.0,97,0.00,BKN,OVC,0.00,WeatherDisplay:10.37,2013-08-03 08:30:00,
2013-08-03 04:32:00,68.4,67.5,30.03,West,270,2.1,3.5,97,0.00,BKN,OVC,0.00,WeatherDisplay:10.37,2013-08-03 08:32:00,
2013-08-03 04:34:00,68.6,67.7,30.03,West,270,2.7,4.6,97,0.00,BKN,OVC,0.00,WeatherDisplay:10.37,2013-08-03 08:34:00,
2013-08-03 04:35:00,68.8,67.9,30.03,West,270,1.9,3.5,97,0.00,BKN,OVC,0.00,WeatherDisplay:10.37,2013-08-03 08:35:00,
2013-08-03 04:37:00,68.9,68.0,30.03,West,270,0.1,2.3,97,0.00,BKN,OVC,0.00,WeatherDisplay:10.37,2013-08-03 08:37:00,
2013-08-03 04:38:00,68.9,68.0,30.03,West,270,0.0,0.0,97,0.00,BKN,OVC,0.00,WeatherDisplay:10.37,2013-08-03 08:38:00,
2013-08-03 04:39:00,68.9,68.0,30.03,West,270,0.0,0.0,97,0.00,BKN,OVC,0.00,WeatherDisplay:10.37,2013-08-03 08:39:00,
2013-08-03 04:42:00,68.9,68.0,30.03,West,270,0.0,0.0,97,0.00,BKN,OVC,0.00,WeatherDisplay:10.37,2013-08-03 08:42:00,
2013-08-03 04:43:00,68.8,67.9,30.03,West,270,0.0,0.0,97,0.00,BKN,OVC,0.00,WeatherDisplay:10.37,2013-08-03 08:43:00,
2013-08-03 04:44:00,68.8,67.9,30.03,West,270,0.0,0.0,97,0.00,BKN,OVC,0.00,WeatherDisplay:10.37,2013-08-03 08:44:00,
2013-08-03 04:45:00,68.8,67.9,30.03,West,270,0.0,0.0,97,0.00,BKN,OVC,0.00,WeatherDisplay:10.37,2013-08-03 08:45:00,
2013-08-03 04:48:00,68.9,68.0,30.03,West,270,0.0,0.0,97,0.00,BKN,OVC,0.00,WeatherDisplay:10.37,2013-08-03 08:48:00,
2013-08-03 04:49:00,68.9,68.0,30.03,West,270,0.0,0.0,97,0.00,BKN,OVC,0.00,WeatherDisplay:10.37,2013-08-03 08:49:00,
2013-08-03 04:50:00,68.8,67.9,30.03,West,270,0.0,0.0,97,0.00,BKN,OVC,0.00,WeatherDisplay:10.37,2013-08-03 08:50:00,
2013-08-03 04:51:00,68.8,67.9,30.03,West,270,0.0,0.0,97,0.00,BKN,OVC,0.00,WeatherDisplay:10.37,2013-08-03 08:51:00,
2013-08-03 04:53:00,68.8,67.9,30.03,West,270,0.0,0.0,97,0.00,BKN,OVC,0.00,WeatherDisplay:10.37,2013-08-03 08:53:00,
2013-08-03 04:54:00,68.8,67.9,30.03,West,270,0.0,0.0,97,0.00,BKN,OVC,0.00,WeatherDisplay:10.37,2013-08-03 08:54:00,
2013-08-03 04:55:00,68.8,67.9,30.03,West,270,0.0,0.0,97,0.00,BKN,OVC,0.00,WeatherDisplay:10.37,2013-08-03 08:55:00,
2013-08-03 04:56:00,68.8,67.9,30.03,West,270,0.0,0.0,97,0.00,BKN,OVC,0.00,WeatherDisplay:10.37,2013-08-03 08:56:00,
2013-08-03 04:58:00,68.9,68.0,30.03,West,270,0.0,0.0,97,0.00,BKN,OVC,0.00,WeatherDisplay:10.37,2013-08-03 08:58:00,
2013-08-03 05:00:00,69.1,68.5,30.03,West,270,0.0,0.0,98,0.00,BKN,OVC,0.00,WeatherDisplay:10.37,2013-08-03 09:00:00,
2013-08-03 05:01:00,69.1,68.5,30.03,West,270,0.0,0.0,98,0.00,BKN,OVC,0.00,WeatherDisplay:10.37,2013-08-03 09:01:00,
2013-08-03 05:03:00,69.3,68.7,30.03,West,270,0.0,0.0,98,0.00,BKN,OVC,0.00,WeatherDisplay:10.37,2013-08-03 09:03:00,
2013-08-03 05:04:00,69.3,68.4,30.03,West,270,0.0,0.0,97,0.00,BKN,OVC,0.00,WeatherDisplay:10.37,2013-08-03 09:04:00,
2013-08-03 05:05:00,69.3,68.4,30.03,West,270,0.0,0.0,97,0.00,BKN,OVC,0.00,WeatherDisplay:10.37,2013-08-03 09:05:00,
2013-08-03 05:07:00,69.3,68.4,30.03,West,270,0.0,0.0,97,0.00,BKN,OVC,0.00,WeatherDisplay:10.37,2013-08-03 09:07:00,
2013-08-03 05:09:00,69.3,68.4,30.03,West,269,0.0,0.0,97,0.00,BKN,OVC,0.00,WeatherDisplay:10.37,2013-08-03 09:09:00,
2013-08-03 05:12:00,68.8,67.9,30.03,West,270,0.0,0.0,97,0.00,BKN,OVC,0.00,WeatherDisplay:10.37,2013-08-03 09:12:00,
2013-08-03 05:13:00,68.8,67.9,30.03,West,270,0.0,0.0,97,0.00,BKN,OVC,0.00,WeatherDisplay:10.37,2013-08-03 09:13:00,
2013-08-03 05:14:00,68.8,67.9,30.03,West,270,0.0,0.0,97,0.00,BKN,OVC,0.00,WeatherDisplay:10.37,2013-08-03 09:14:00,
2013-08-03 05:15:00,68.6,67.7,30.03,West,270,0.0,0.0,97,0.00,BKN,OVC,0.00,WeatherDisplay:10.37,2013-08-03 09:15:00,
2013-08-03 05:16:00,68.8,67.9,30.03,West,269,0.0,0.0,97,0.00,BKN,OVC,0.00,WeatherDisplay:10.37,2013-08-03 09:16:00,
2013-08-03 05:19:00,69.1,68.5,30.03,West,270,0.0,0.0,98,0.00,BKN,OVC,0.00,WeatherDisplay:10.37,2013-08-03 09:19:00,
2013-08-03 05:22:00,69.4,68.8,30.03,West,270,0.0,0.0,98,0.00,BKN,OVC,0.00,WeatherDisplay:10.37,2013-08-03 09:22:00,
2013-08-03 05:23:00,69.4,68.5,30.03,West,270,0.0,0.0,97,0.00,BKN,OVC,0.00,WeatherDisplay:10.37,2013-08-03 09:23:00,
2013-08-03 05:26:00,69.4,68.5,30.03,West,270,0.0,0.0,97,0.00,BKN,OVC,0.00,WeatherDisplay:10.37,2013-08-03 09:26:00,
2013-08-03 05:27:00,69.3,68.4,30.03,West,270,0.0,0.0,97,0.00,BKN,OVC,0.00,WeatherDisplay:10.37,2013-08-03 09:27:00,
2013-08-03 05:28:00,69.3,68.4,30.03,West,270,0.0,0.0,97,0.00,BKN,OVC,0.00,WeatherDisplay:10.37,2013-08-03 09:28:00,
2013-08-03 05:29:00,69.3,68.4,30.03,West,270,0.0,0.0,97,0.00,BKN,OVC,0.00,WeatherDisplay:10.37,2013-08-03 09:29:00,
2013-08-03 05:32:00,68.9,68.0,30.03,West,270,0.0,0.0,97,0.00,BKN,OVC,0.00,WeatherDisplay:10.37,2013-08-03 09:32:00,
2013-08-03 05:33:00,68.9,68.0,30.03,West,270,0.0,0.0,97,0.00,BKN,OVC,0.00,WeatherDisplay:10.37,2013-08-03 09:33:00,
2013-08-03 05:34:00,68.9,68.0,30.03,West,270,0.0,0.0,97,0.00,BKN,OVC,0.00,WeatherDisplay:10.37,2013-08-03 09:34:00,
2013-08-03 05:35:00,68.8,67.9,30.03,West,270,0.0,0.0,97,0.00,BKN,OVC,0.00,WeatherDisplay:10.37,2013-08-03 09:35:00,
2013-08-03 05:38:00,68.9,68.0,30.04,West,270,0.0,0.0,97,0.00,BKN,OVC,0.00,WeatherDisplay:10.37,2013-08-03 09:38:00,
2013-08-03 05:39:00,68.9,68.0,30.04,West,270,0.0,0.0,97,0.00,BKN,OVC,0.00,WeatherDisplay:10.37,2013-08-03 09:39:00,
2013-08-03 05:40:00,68.9,68.0,30.04,West,270,0.0,0.0,97,0.00,BKN,OVC,0.00,WeatherDisplay:10.37,2013-08-03 09:40:00,
2013-08-03 05:42:00,68.9,68.0,30.04,West,270,0.0,0.0,97,0.00,BKN,OVC,0.00,WeatherDisplay:10.37,2013-08-03 09:42:00,
2013-08-03 05:43:00,68.9,68.0,30.04,West,270,0.0,0.0,97,0.00,BKN,OVC,0.00,WeatherDisplay:10.37,2013-08-03 09:43:00,
2013-08-03 05:45:00,68.9,68.0,30.04,West,270,0.0,0.0,97,0.00,BKN,OVC,0.00,WeatherDisplay:10.37,2013-08-03 09:45:00,
2013-08-03 05:47:00,69.1,68.2,30.04,West,270,0.0,0.0,97,0.00,BKN,OVC,0.00,WeatherDisplay:10.37,2013-08-03 09:47:00,
2013-08-03 05:48:00,69.1,68.2,30.04,West,270,0.0,0.0,97,0.00,BKN,OVC,0.00,WeatherDisplay:10.37,2013-08-03 09:48:00,
2013-08-03 05:49:00,69.1,68.2,30.04,West,270,0.0,0.0,97,0.00,BKN,OVC,0.00,WeatherDisplay:10.37,2013-08-03 09:49:00,
2013-08-03 05:50:00,69.1,68.2,30.04,West,270,0.0,0.0,97,0.00,BKN,OVC,0.00,WeatherDisplay:10.37,2013-08-03 09:50:00,
2013-08-03 05:51:00,68.9,68.0,30.04,West,270,0.0,0.0,97,0.00,BKN,OVC,0.00,WeatherDisplay:10.37,2013-08-03 09:51:00,
2013-08-03 05:53:00,68.8,67.9,30.04,West,270,0.0,0.0,97,0.00,BKN,OVC,0.00,WeatherDisplay:10.37,2013-08-03 09:53:00,
2013-08-03 05:54:00,68.8,67.9,30.04,West,270,0.0,0.0,97,0.00,BKN,OVC,0.00,WeatherDisplay:10.37,2013-08-03 09:54:00,
2013-08-03 05:56:00,68.6,67.7,30.04,West,270,0.0,0.0,97,0.00,BKN,OVC,0.00,WeatherDisplay:10.37,2013-08-03 09:56:00,
2013-08-03 05:57:00,68.6,67.7,30.04,West,270,0.0,0.0,97,0.00,BKN,OVC,0.00,WeatherDisplay:10.37,2013-08-03 09:57:00,
2013-08-03 05:58:00,68.6,67.7,30.05,West,269,0.0,0.0,97,0.00,BKN,OVC,0.00,WeatherDisplay:10.37,2013-08-03 09:58:00,
2013-08-03 05:59:00,68.6,67.7,30.05,West,270,0.0,0.0,97,0.00,BKN,OVC,0.00,WeatherDisplay:10.37,2013-08-03 09:59:00,
2013-08-03 06:00:00,68.6,67.7,30.05,West,270,0.0,0.0,97,0.00,BKN,OVC,0.00,WeatherDisplay:10.37,2013-08-03 10:00:00,
2013-08-03 06:03:00,68.9,68.0,30.05,West,270,0.0,0.0,97,0.00,BKN,OVC,0.00,WeatherDisplay:10.37,2013-08-03 10:03:00,
2013-08-03 06:04:00,68.9,68.0,30.05,West,270,0.0,0.0,97,0.00,BKN,OVC,0.00,WeatherDisplay:10.37,2013-08-03 10:04:00,
2013-08-03 06:05:00,68.9,68.0,30.05,West,270,0.0,0.0,97,0.00,BKN,OVC,0.00,WeatherDisplay:10.37,2013-08-03 10:05:00,
2013-08-03 06:07:00,68.9,68.0,30.05,West,270,0.0,0.0,97,0.00,BKN,OVC,0.00,WeatherDisplay:10.37,2013-08-03 10:07:00,
2013-08-03 06:10:00,69.1,68.2,30.05,West,270,0.0,0.0,97,0.00,BKN,OVC,0.00,WeatherDisplay:10.37,2013-08-03 10:10:00,
2013-08-03 06:12:00,69.1,68.2,30.05,West,269,0.0,0.0,97,0.00,BKN,OVC,0.00,WeatherDisplay:10.37,2013-08-03 10:12:00,
2013-08-03 06:13:00,69.1,68.2,30.05,West,269,0.0,0.0,97,0.00,BKN,OVC,0.00,WeatherDisplay:10.37,2013-08-03 10:13:00,
2013-08-03 06:14:00,69.3,68.4,30.05,West,269,0.0,0.0,97,0.00,BKN,OVC,0.00,WeatherDisplay:10.37,2013-08-03 10:14:00,
2013-08-03 06:17:00,69.6,69.0,30.05,West,270,0.0,0.0,98,0.00,BKN,OVC,0.00,WeatherDisplay:10.37,2013-08-03 10:17:00,
2013-08-03 06:18:00,69.6,69.0,30.05,West,270,0.0,0.0,98,0.00,BKN,OVC,0.00,WeatherDisplay:10.37,2013-08-03 10:18:00,
2013-08-03 06:19:00,69.6,69.0,30.05,West,270,0.0,0.0,98,0.00,BKN,OVC,0.00,WeatherDisplay:10.37,2013-08-03 10:19:00,
2013-08-03 06:21:00,69.6,68.7,30.05,West,269,0.0,0.0,97,0.00,BKN,OVC,0.00,WeatherDisplay:10.37,2013-08-03 10:21:00,
2013-08-03 06:23:00,69.6,68.7,30.05,West,269,0.0,0.0,97,0.00,BKN,OVC,0.00,WeatherDisplay:10.37,2013-08-03 10:23:00,
2013-08-03 06:24:00,69.4,68.5,30.05,West,270,0.0,0.0,97,0.00,BKN,OVC,0.00,WeatherDisplay:10.37,2013-08-03 10:24:00,
2013-08-03 06:28:00,69.6,68.7,30.05,West,270,0.0,0.0,97,0.00,BKN,OVC,0.00,WeatherDisplay:10.37,2013-08-03 10:28:00,
2013-08-03 06:29:00,69.8,68.9,30.05,West,270,0.0,0.0,97,0.00,BKN,OVC,0.00,WeatherDisplay:10.37,2013-08-03 10:29:00,
2013-08-03 06:31:00,69.9,69.3,30.05,West,269,0.0,0.0,98,0.00,BKN,OVC,0.00,WeatherDisplay:10.37,2013-08-03 10:31:00,
2013-08-03 06:34:00,70.3,69.7,30.05,West,269,0.0,0.0,98,0.00,BKN,OVC,0.00,WeatherDisplay:10.37,2013-08-03 10:34:00,
2013-08-03 06:35:00,70.3,69.7,30.05,West,269,0.0,0.0,98,0.00,BKN,OVC,0.00,WeatherDisplay:10.37,2013-08-03 10:35:00,
2013-08-03 06:36:00,70.3,69.7,30.05,West,270,0.0,0.0,98,0.00,BKN,OVC,0.00,WeatherDisplay:10.37,2013-08-03 10:36:00,
2013-08-03 06:40:00,69.9,69.0,30.05,West,269,0.0,0.0,97,0.00,BKN,OVC,0.00,WeatherDisplay:10.37,2013-08-03 10:40:00,
2013-08-03 06:41:00,69.9,69.0,30.05,West,269,0.0,0.0,97,0.00,BKN,OVC,0.00,WeatherDisplay:10.37,2013-08-03 10:41:00,
2013-08-03 06:44:00,70.3,69.7,30.05,West,269,0.0,0.0,98,0.00,BKN,OVC,0.00,WeatherDisplay:10.37,2013-08-03 10:44:00,
2013-08-03 06:46:00,70.3,69.7,30.05,West,270,0.0,0.0,98,0.00,BKN,OVC,0.00,WeatherDisplay:10.37,2013-08-03 10:46:00,
2013-08-03 06:47:00,70.3,69.4,30.05,West,269,0.0,0.0,97,0.00,BKN,OVC,0.00,WeatherDisplay:10.37,2013-08-03 10:47:00,
2013-08-03 06:49:00,70.1,69.2,30.05,West,270,0.0,0.0,97,0.00,BKN,OVC,0.00,WeatherDisplay:10.37,2013-08-03 10:49:00,
2013-08-03 06:51:00,70.3,69.4,30.05,West,269,0.5,2.0,97,0.00,BKN,OVC,0.00,WeatherDisplay:10.37,2013-08-03 10:51:00,
2013-08-03 06:52:00,70.3,69.4,30.05,West,269,2.0,2.0,97,0.00,BKN,OVC,0.00,WeatherDisplay:10.37,2013-08-03 10:52:00,
2013-08-03 06:53:00,70.3,69.4,30.05,West,269,1.7,2.3,97,0.00,BKN,OVC,0.00,WeatherDisplay:10.37,2013-08-03 10:53:00,
2013-08-03 06:55:00,70.3,69.4,30.05,West,269,2.3,2.3,97,0.00,BKN,OVC,0.00,WeatherDisplay:10.37,2013-08-03 10:55:00,
2013-08-03 07:00:00,70.1,69.2,30.05,West,269,1.8,3.5,97,0.00,BKN,OVC,0.00,WeatherDisplay:10.37,2013-08-03 11:00:00,
2013-08-03 07:02:00,70.3,69.7,30.05,West,270,2.0,3.5,98,0.00,BKN,OVC,0.00,WeatherDisplay:10.37,2013-08-03 11:02:00,
2013-08-03 07:05:00,70.4,69.8,30.05,West,269,1.8,2.3,98,0.00,BKN,OVC,0.00,WeatherDisplay:10.37,2013-08-03 11:05:00,
2013-08-03 07:06:00,70.4,69.8,30.05,West,270,1.9,3.5,98,0.00,BKN,OVC,0.00,WeatherDisplay:10.37,2013-08-03 11:06:00,
2013-08-03 07:07:00,70.4,69.8,30.05,West,269,1.0,3.5,98,0.00,BKN,OVC,0.00,WeatherDisplay:10.37,2013-08-03 11:07:00,
2013-08-03 07:09:00,70.4,69.8,30.05,West,269,0.0,0.0,98,0.00,BKN,OVC,0.00,WeatherDisplay:10.37,2013-08-03 11:09:00,
2013-08-03 07:11:00,70.4,69.8,30.05,West,269,0.0,0.0,98,0.00,BKN,OVC,0.00,WeatherDisplay:10.37,2013-08-03 11:11:00,
2013-08-03 07:12:00,70.4,69.5,30.05,West,269,0.0,0.0,97,0.00,BKN,OVC,0.00,WeatherDisplay:10.37,2013-08-03 11:12:00,
2013-08-03 07:16:00,70.4,69.5,30.05,West,269,0.0,0.0,97,0.00,BKN,OVC,0.00,WeatherDisplay:10.37,2013-08-03 11:16:00,
2013-08-03 07:17:00,70.3,69.4,30.05,West,269,0.0,0.0,97,0.00,BKN,OVC,0.00,WeatherDisplay:10.37,2013-08-03 11:17:00,
2013-08-03 07:18:00,70.3,69.4,30.05,West,269,0.0,0.0,97,0.00,BKN,OVC,0.00,WeatherDisplay:10.37,2013-08-03 11:18:00,
2013-08-03 07:19:00,70.1,68.9,30.05,West,269,0.0,0.0,96,0.00,BKN,OVC,0.00,WeatherDisplay:10.37,2013-08-03 11:19:00,
2013-08-03 07:23:00,69.6,68.7,30.05,West,269,0.0,0.0,97,0.00,BKN,OVC,0.00,WeatherDisplay:10.37,2013-08-03 11:23:00,
2013-08-03 07:24:00,69.6,68.7,30.05,West,269,0.0,0.0,97,0.00,BKN,OVC,0.00,WeatherDisplay:10.37,2013-08-03 11:24:00,
2013-08-03 07:29:00,70.3,69.7,30.05,West,269,0.0,0.0,98,0.00,BKN,OVC,0.00,WeatherDisplay:10.37,2013-08-03 11:29:00,
2013-08-03 07:30:00,70.3,69.7,30.05,West,269,0.0,0.0,98,0.00,BKN,OVC,0.00,WeatherDisplay:10.37,2013-08-03 11:30:00,
2013-08-03 07:31:00,70.4,69.8,30.05,West,269,0.0,0.0,98,0.00,BKN,OVC,0.00,WeatherDisplay:10.37,2013-08-03 11:31:00,
2013-08-03 07:34:00,70.6,70.0,30.05,West,269,0.0,0.0,98,0.00,BKN,OVC,0.00,WeatherDisplay:10.37,2013-08-03 11:34:00,
2013-08-03 07:35:00,70.6,70.0,30.05,West,269,0.0,0.0,98,0.00,BKN,OVC,0.00,WeatherDisplay:10.37,2013-08-03 11:35:00,
2013-08-03 07:36:00,70.6,70.0,30.05,West,269,0.0,0.0,98,0.00,BKN,OVC,0.00,WeatherDisplay:10.37,2013-08-03 11:36:00,
2013-08-03 07:37:00,70.6,70.0,30.05,West,269,0.0,0.0,98,0.00,BKN,OVC,0.00,WeatherDisplay:10.37,2013-08-03 11:37:00,
2013-08-03 07:38:00,70.6,70.0,30.05,West,269,0.0,0.0,98,0.00,BKN,OVC,0.00,WeatherDisplay:10.37,2013-08-03 11:38:00,
2013-08-03 07:40:00,70.8,70.2,30.05,West,269,0.0,0.0,98,0.00,BKN,OVC,0.00,WeatherDisplay:10.37,2013-08-03 11:40:00,
2013-08-03 07:41:00,70.8,70.2,30.05,West,269,0.0,0.0,98,0.00,BKN,OVC,0.00,WeatherDisplay:10.37,2013-08-03 11:41:00,
2013-08-03 07:42:00,70.8,70.2,30.05,West,269,0.0,0.0,98,0.00,BKN,OVC,0.00,WeatherDisplay:10.37,2013-08-03 11:42:00,
2013-08-03 07:43:00,70.9,70.3,30.05,West,269,0.0,0.0,98,0.00,BKN,OVC,0.00,WeatherDisplay:10.37,2013-08-03 11:43:00,
2013-08-03 07:44:00,70.9,70.3,30.05,West,269,0.0,0.0,98,0.00,BKN,OVC,0.00,WeatherDisplay:10.37,2013-08-03 11:44:00,
2013-08-03 07:45:00,70.9,70.3,30.05,West,269,0.0,0.0,98,0.00,BKN,OVC,0.00,WeatherDisplay:10.37,2013-08-03 11:45:00,
2013-08-03 07:47:00,70.9,70.3,30.05,West,270,0.0,0.0,98,0.00,BKN,OVC,0.00,WeatherDisplay:10.37,2013-08-03 11:47:00,
2013-08-03 07:48:00,70.9,70.0,30.05,West,269,0.0,0.0,97,0.00,BKN,OVC,0.00,WeatherDisplay:10.37,2013-08-03 11:48:00,
2013-08-03 07:50:00,70.8,69.9,30.05,West,269,0.0,0.0,97,0.00,BKN,OVC,0.00,WeatherDisplay:10.37,2013-08-03 11:50:00,
2013-08-03 07:51:00,70.6,69.7,30.05,West,269,0.0,0.0,97,0.00,BKN,OVC,0.00,WeatherDisplay:10.37,2013-08-03 11:51:00,
2013-08-03 07:54:00,70.6,69.7,30.05,West,269,0.0,0.0,97,0.00,BKN,OVC,0.00,WeatherDisplay:10.37,2013-08-03 11:54:00,
2013-08-03 07:55:00,70.6,69.7,30.05,West,269,0.0,0.0,97,0.00,BKN,OVC,0.00,WeatherDisplay:10.37,2013-08-03 11:55:00,
2013-08-03 07:58:00,70.9,70.3,30.05,West,269,0.0,0.0,98,0.00,BKN,OVC,0.00,WeatherDisplay:10.37,2013-08-03 11:58:00,
2013-08-03 07:59:00,70.9,70.3,30.05,West,269,0.0,0.0,98,0.00,BKN,OVC,0.00,WeatherDisplay:10.37,2013-08-03 11:59:00,
2013-08-03 08:00:00,71.1,70.5,30.05,West,269,0.0,0.0,98,0.00,BKN,OVC,0.00,WeatherDisplay:10.37,2013-08-03 12:00:00,
2013-08-03 08:03:00,71.3,70.7,30.05,West,269,0.0,0.0,98,0.00,BKN,OVC,0.00,WeatherDisplay:10.37,2013-08-03 12:03:00,
2013-08-03 08:05:00,71.5,70.9,30.05,West,269,0.0,0.0,98,0.00,BKN,OVC,0.00,WeatherDisplay:10.37,2013-08-03 12:05:00,
2013-08-03 08:09:00,71.6,71.0,30.05,West,269,0.0,0.0,98,0.00,BKN,OVC,0.00,WeatherDisplay:10.37,2013-08-03 12:09:00,
2013-08-03 08:10:00,71.8,71.2,30.05,West,269,0.0,0.0,98,0.00,BKN,OVC,0.00,WeatherDisplay:10.37,2013-08-03 12:10:00,
2013-08-03 08:11:00,71.8,71.2,30.05,West,269,0.0,0.0,98,0.00,BKN,OVC,0.00,WeatherDisplay:10.37,2013-08-03 12:11:00,
2013-08-03 08:12:00,72.0,71.4,30.05,West,269,0.0,0.0,98,0.00,BKN,OVC,0.00,WeatherDisplay:10.37,2013-08-03 12:12:00,
2013-08-03 08:15:00,72.0,71.4,30.05,West,269,0.0,0.0,98,0.00,BKN,OVC,0.00,WeatherDisplay:10.37,2013-08-03 12:15:00,
2013-08-03 08:16:00,72.1,71.5,30.05,West,269,0.0,0.0,98,0.00,BKN,OVC,0.00,WeatherDisplay:10.37,2013-08-03 12:16:00,
2013-08-03 08:20:00,72.3,71.7,30.05,West,269,0.0,0.0,98,0.00,BKN,OVC,0.00,WeatherDisplay:10.37,2013-08-03 12:20:00,
2013-08-03 08:21:00,72.3,71.7,30.05,West,269,0.0,0.0,98,0.00,BKN,OVC,0.00,WeatherDisplay:10.37,2013-08-03 12:21:00,
2013-08-03 08:22:00,72.3,71.7,30.05,West,269,0.0,0.0,98,0.00,BKN,OVC,0.00,WeatherDisplay:10.37,2013-08-03 12:22:00,
2013-08-03 08:23:00,72.5,71.9,30.05,West,269,0.0,0.0,98,0.00,BKN,OVC,0.00,WeatherDisplay:10.37,2013-08-03 12:23:00,
2013-08-03 08:25:00,72.5,71.9,30.05,West,269,2.6,4.6,98,0.00,BKN,OVC,0.00,WeatherDisplay:10.37,2013-08-03 12:25:00,
2013-08-03 08:26:00,72.7,72.1,30.05,West,269,2.2,3.5,98,0.00,BKN,OVC,0.00,WeatherDisplay:10.37,2013-08-03 12:26:00,
2013-08-03 08:27:00,72.7,72.1,30.05,West,269,2.4,4.0,98,0.00,BKN,OVC,0.00,WeatherDisplay:10.37,2013-08-03 12:27:00,
2013-08-03 08:28:00,72.7,72.1,30.05,West,269,3.4,5.0,98,0.00,BKN,OVC,0.00,WeatherDisplay:10.37,2013-08-03 12:28:00,
2013-08-03 08:31:00,72.8,72.2,30.05,West,269,2.5,5.0,98,0.00,BKN,OVC,0.00,WeatherDisplay:10.37,2013-08-03 12:31:00,
2013-08-03 08:32:00,72.8,71.9,30.05,West,269,2.9,5.0,97,0.00,BKN,OVC,0.00,WeatherDisplay:10.37,2013-08-03 12:32:00,
2013-08-03 08:33:00,72.8,71.9,30.05,West,269,3.0,3.5,97,0.00,BKN,OVC,0.00,WeatherDisplay:10.37,2013-08-03 12:33:00,
2013-08-03 08:34:00,73.0,72.1,30.05,West,269,3.2,4.0,97,0.00,BKN,OVC,0.00,WeatherDisplay:10.37,2013-08-03 12:34:00,
2013-08-03 08:36:00,73.0,72.1,30.05,West,269,2.6,3.5,97,0.00,BKN,OVC,0.00,WeatherDisplay:10.37,2013-08-03 12:36:00,
2013-08-03 08:37:00,73.0,72.1,30.05,West,269,2.9,3.5,97,0.00,BKN,OVC,0.00,WeatherDisplay:10.37,2013-08-03 12:37:00,
2013-08-03 08:39:00,73.2,72.3,30.05,West,269,3.0,4.0,97,0.00,BKN,OVC,0.00,WeatherDisplay:10.37,2013-08-03 12:39:00,
2013-08-03 08:40:00,73.2,72.3,30.05,West,269,3.5,4.0,97,0.00,BKN,OVC,0.00,WeatherDisplay:10.37,2013-08-03 12:40:00,
2013-08-03 08:42:00,73.2,72.3,30.05,West,269,4.2,6.0,97,0.00,BKN,OVC,0.00,WeatherDisplay:10.37,2013-08-03 12:42:00,
2013-08-03 08:44:00,73.2,72.3,30.05,West,269,4.6,4.6,97,0.00,BKN,OVC,0.00,WeatherDisplay:10.37,2013-08-03 12:44:00,
2013-08-03 08:45:00,73.2,72.3,30.05,West,269,5.0,6.0,97,0.00,BKN,OVC,0.00,WeatherDisplay:10.37,2013-08-03 12:45:00,
2013-08-03 08:47:00,73.3,72.4,30.05,West,269,4.6,5.8,97,0.00,BKN,OVC,0.00,WeatherDisplay:10.37,2013-08-03 12:47:00,
2013-08-03 08:50:00,73.3,72.1,30.05,West,269,4.3,5.8,96,0.00,BKN,OVC,0.00,WeatherDisplay:10.37,2013-08-03 12:50:00,
2013-08-03 08:51:00,73.5,72.3,30.05,West,269,4.3,5.8,96,0.00,BKN,OVC,0.00,WeatherDisplay:10.37,2013-08-03 12:51:00,
2013-08-03 08:52:00,73.5,72.3,30.05,West,269,4.5,6.0,96,0.00,BKN,OVC,0.00,WeatherDisplay:10.37,2013-08-03 12:52:00,
2013-08-03 08:53:00,73.5,72.3,30.05,West,269,4.1,5.8,96,0.00,BKN,OVC,0.00,WeatherDisplay:10.37,2013-08-03 12:53:00,
2013-08-03 08:56:00,73.7,72.5,30.05,West,269,4.3,5.8,96,0.00,BKN,OVC,0.00,WeatherDisplay:10.37,2013-08-03 12:56:00,
2013-08-03 08:57:00,73.7,72.5,30.05,West,269,5.3,6.0,96,0.00,BKN,OVC,0.00,WeatherDisplay:10.37,2013-08-03 12:57:00,
2013-08-03 08:58:00,73.7,72.5,30.05,West,269,4.2,5.8,96,0.00,BKN,OVC,0.00,WeatherDisplay:10.37,2013-08-03 12:58:00,
2013-08-03 09:02:00,74.0,72.8,30.05,West,269,4.6,5.8,96,0.00,BKN,OVC,0.00,WeatherDisplay:10.37,2013-08-03 13:02:00,
2013-08-03 09:03:00,74.0,72.8,30.05,West,269,3.9,5.0,96,0.00,BKN,OVC,0.00,WeatherDisplay:10.37,2013-08-03 13:03:00,
2013-08-03 09:06:00,74.2,73.0,30.05,West,269,5.3,6.9,96,0.00,BKN,OVC,0.00,WeatherDisplay:10.37,2013-08-03 13:06:00,
2013-08-03 09:10:00,74.4,72.9,30.06,West,269,4.5,6.9,95,0.00,BKN,OVC,0.00,WeatherDisplay:10.37,2013-08-03 13:10:00,
2013-08-03 09:11:00,74.4,72.9,30.06,West,269,4.5,5.8,95,0.00,BKN,OVC,0.00,WeatherDisplay:10.37,2013-08-03 13:11:00,
2013-08-03 09:13:00,74.6,73.1,30.06,West,269,4.2,4.2,95,0.00,BKN,OVC,0.00,WeatherDisplay:10.37,2013-08-03 13:13:00,
2013-08-03 09:14:00,74.6,73.1,30.06,West,269,5.0,5.8,95,0.00,BKN,OVC,0.00,WeatherDisplay:10.37,2013-08-03 13:14:00,
2013-08-03 09:15:00,74.6,72.8,30.06,West,269,5.0,8.0,94,0.00,BKN,OVC,0.00,WeatherDisplay:10.37,2013-08-03 13:15:00,
2013-08-03 09:20:00,74.9,72.7,30.06,West,269,2.8,5.0,93,0.00,BKN,OVC,0.00,WeatherDisplay:10.37,2013-08-03 13:20:00,
2013-08-03 09:21:00,75.1,72.9,30.06,West,269,5.1,5.8,93,0.00,BKN,OVC,0.00,WeatherDisplay:10.37,2013-08-03 13:21:00,
2013-08-03 09:22:00,75.1,72.9,30.06,West,269,4.7,5.8,93,0.00,BKN,OVC,0.00,WeatherDisplay:10.37,2013-08-03 13:22:00,
2013-08-03 09:23:00,75.1,72.9,30.06,West,269,4.4,5.8,93,0.00,BKN,OVC,0.00,WeatherDisplay:10.37,2013-08-03 13:23:00,
2013-08-03 09:25:00,75.3,72.8,30.05,West,269,4.5,5.0,92,0.00,BKN,OVC,0.00,WeatherDisplay:10.37,2013-08-03 13:25:00,
2013-08-03 09:28:00,75.4,72.9,30.05,West,269,5.1,5.8,92,0.00,BKN,OVC,0.00,WeatherDisplay:10.37,2013-08-03 13:28:00,
2013-08-03 09:29:00,75.4,72.9,30.05,West,269,4.8,5.8,92,0.00,BKN,OVC,0.00,WeatherDisplay:10.37,2013-08-03 13:29:00,
2013-08-03 09:30:00,75.4,72.9,30.05,West,269,5.9,6.9,92,0.00,BKN,OVC,0.00,WeatherDisplay:10.37,2013-08-03 13:30:00,
2013-08-03 09:32:00,75.4,72.9,30.05,West,269,5.0,6.0,92,0.00,BKN,OVC,0.00,WeatherDisplay:10.37,2013-08-03 13:32:00,
2013-08-03 09:33:00,75.6,72.8,30.05,West,269,7.1,8.1,91,0.00,BKN,OVC,0.00,WeatherDisplay:10.37,2013-08-03 13:33:00,
2013-08-03 09:34:00,75.6,72.8,30.05,West,269,6.6,9.2,91,0.00,BKN,OVC,0.00,WeatherDisplay:10.37,2013-08-03 13:34:00,
2013-08-03 09:37:00,75.6,72.8,30.05,West,269,5.6,6.9,91,0.00,BKN,OVC,0.00,WeatherDisplay:10.37,2013-08-03 13:37:00,
2013-08-03 09:39:00,75.8,73.0,30.06,West,269,7.0,9.2,91,0.00,BKN,OVC,0.00,WeatherDisplay:10.37,2013-08-03 13:39:00,
2013-08-03 09:40:00,75.8,72.7,30.06,West,269,6.3,9.2,90,0.00,BKN,OVC,0.00,WeatherDisplay:10.37,2013-08-03 13:40:00,
2013-08-03 09:41:00,75.8,72.7,30.06,West,269,6.3,9.2,90,0.00,BKN,OVC,0.00,WeatherDisplay:10.37,2013-08-03 13:41:00,
2013-08-03 09:42:00,75.8,72.3,30.06,West,269,6.8,9.2,89,0.00,BKN,OVC,0.00,WeatherDisplay:10.37,2013-08-03 13:42:00,
2013-08-03 09:44:00,76.0,72.5,30.06,West,269,6.1,9.2,89,0.00,BKN,OVC,0.00,WeatherDisplay:10.37,2013-08-03 13:44:00,
2013-08-03 09:45:00,76.0,72.5,30.06,West,269,7.0,10.0,89,0.00,BKN,OVC,0.00,WeatherDisplay:10.37,2013-08-03 13:45:00,
2013-08-03 09:46:00,76.0,72.5,30.06,West,269,5.8,9.2,89,0.00,BKN,OVC,0.00,WeatherDisplay:10.37,2013-08-03 13:46:00,
2013-08-03 09:47:00,76.1,72.6,30.06,West,269,5.0,6.0,89,0.00,BKN,OVC,0.00,WeatherDisplay:10.37,2013-08-03 13:47:00,
2013-08-03 09:49:00,76.3,72.8,30.06,West,269,5.5,8.0,89,0.00,BKN,OVC,0.00,WeatherDisplay:10.37,2013-08-03 13:49:00,
2013-08-03 09:50:00,76.3,72.8,30.06,West,269,7.0,9.2,89,0.00,BKN,OVC,0.00,WeatherDisplay:10.37,2013-08-03 13:50:00,
2013-08-03 09:51:00,76.3,72.5,30.06,West,269,8.2,9.2,88,0.00,BKN,OVC,0.00,WeatherDisplay:10.37,2013-08-03 13:51:00,
2013-08-03 09:54:00,76.5,72.7,30.05,West,269,5.6,6.9,88,0.00,BKN,OVC,0.00,WeatherDisplay:10.37,2013-08-03 13:54:00,
2013-08-03 09:56:00,76.7,72.9,30.05,West,269,6.5,9.0,88,0.00,BKN,OVC,0.00,WeatherDisplay:10.37,2013-08-03 13:56:00,
2013-08-03 09:57:00,76.7,72.2,30.05,West,269,5.6,9.2,86,0.00,BKN,OVC,0.00,WeatherDisplay:10.37,2013-08-03 13:57:00,
2013-08-03 09:58:00,76.7,72.5,30.05,West,269,5.4,9.2,87,0.00,BKN,OVC,0.00,WeatherDisplay:10.37,2013-08-03 13:58:00,
2013-08-03 10:01:00,77.0,72.5,30.05,West,269,7.5,10.4,86,0.00,OVC,,0.00,WeatherDisplay:10.37,2013-08-03 14:01:00,
2013-08-03 10:02:00,77.0,72.5,30.05,West,269,5.8,10.4,86,0.00,OVC,,0.00,WeatherDisplay:10.37,2013-08-03 14:02:00,
2013-08-03 10:03:00,77.2,72.7,30.05,West,269,5.4,6.9,86,0.00,OVC,,0.00,WeatherDisplay:10.37,2013-08-03 14:03:00,
2013-08-03 10:07:00,77.4,72.5,30.05,West,269,4.0,6.9,85,0.00,OVC,,0.00,WeatherDisplay:10.37,2013-08-03 14:07:00,
2013-08-03 10:08:00,77.4,72.2,30.05,West,269,6.6,9.2,84,0.00,OVC,,0.00,WeatherDisplay:10.37,2013-08-03 14:08:00,
2013-08-03 10:09:00,77.4,72.2,30.05,West,269,7.2,9.2,84,0.00,OVC,,0.00,WeatherDisplay:10.37,2013-08-03 14:09:00,
2013-08-03 10:12:00,77.6,72.4,30.05,West,269,5.9,9.2,84,0.00,OVC,,0.00,WeatherDisplay:10.37,2013-08-03 14:12:00,
2013-08-03 10:14:00,77.9,72.7,30.05,West,269,5.2,5.8,84,0.00,OVC,,0.00,WeatherDisplay:10.37,2013-08-03 14:14:00,
2013-08-03 10:15:00,77.9,72.7,30.05,West,269,6.0,12.0,84,0.00,OVC,OVC,0.00,WeatherDisplay:10.37,2013-08-03 14:15:00,
2013-08-03 10:17:00,78.1,72.9,30.05,West,269,7.3,9.2,84,0.00,OVC,,0.00,WeatherDisplay:10.37,2013-08-03 14:17:00,
2013-08-03 10:18:00,78.1,72.9,30.05,West,269,6.6,9.2,84,0.00,OVC,,0.00,WeatherDisplay:10.37,2013-08-03 14:18:00,
2013-08-03 10:19:00,77.9,72.3,30.05,West,269,6.4,9.2,83,0.00,OVC,,0.00,WeatherDisplay:10.37,2013-08-03 14:19:00,
2013-08-03 10:20:00,77.9,72.3,30.05,West,269,6.6,9.2,83,0.00,OVC,,0.00,WeatherDisplay:10.37,2013-08-03 14:20:00,
2013-08-03 10:24:00,77.9,72.7,30.05,West,269,8.5,11.0,84,0.00,OVC,,0.00,WeatherDisplay:10.37,2013-08-03 14:24:00,
2013-08-03 10:25:00,77.9,72.3,30.05,West,269,9.6,12.0,83,0.00,OVC,,0.00,WeatherDisplay:10.37,2013-08-03 14:25:00,
2013-08-03 10:26:00,77.9,72.3,30.05,West,269,9.0,12.0,83,0.00,OVC,,0.00,WeatherDisplay:10.37,2013-08-03 14:26:00,
2013-08-03 10:27:00,77.9,72.7,30.05,West,269,8.6,12.0,84,0.00,OVC,,0.00,WeatherDisplay:10.37,2013-08-03 14:27:00,
2013-08-03 10:30:00,78.1,72.9,30.05,West,269,4.3,6.9,84,0.00,OVC,,0.00,WeatherDisplay:10.37,2013-08-03 14:30:00,
2013-08-03 10:31:00,78.1,72.9,30.05,West,269,4.8,5.8,84,0.00,OVC,,0.00,WeatherDisplay:10.37,2013-08-03 14:31:00,
2013-08-03 10:33:00,78.1,72.9,30.05,West,269,5.8,6.9,84,0.00,OVC,,0.00,WeatherDisplay:10.37,2013-08-03 14:33:00,
2013-08-03 10:37:00,78.1,73.2,30.05,West,269,3.2,4.6,85,0.00,OVC,,0.00,WeatherDisplay:10.37,2013-08-03 14:37:00,
2013-08-03 10:38:00,78.1,73.2,30.05,West,269,2.8,4.6,85,0.00,OVC,,0.00,WeatherDisplay:10.37,2013-08-03 14:38:00,
2013-08-03 10:39:00,78.1,73.2,30.05,West,269,2.7,4.6,85,0.00,OVC,,0.00,WeatherDisplay:10.37,2013-08-03 14:39:00,
2013-08-03 10:43:00,78.3,73.1,30.05,West,269,4.5,6.0,84,0.00,OVC,,0.00,WeatherDisplay:10.37,2013-08-03 14:43:00,
2013-08-03 10:44:00,78.3,73.1,30.05,West,269,5.5,6.9,84,0.00,OVC,,0.00,WeatherDisplay:10.37,2013-08-03 14:44:00,
2013-08-03 10:45:00,78.1,72.5,30.05,West,269,5.5,7.0,83,0.00,OVC,,0.00,WeatherDisplay:10.37,2013-08-03 14:45:00,
2013-08-03 10:46:00,78.1,72.5,30.05,West,269,5.8,6.9,83,0.00,OVC,,0.00,WeatherDisplay:10.37,2013-08-03 14:46:00,
2013-08-03 10:49:00,78.3,73.1,30.05,West,269,5.3,6.9,84,0.00,OVC,,0.00,WeatherDisplay:10.37,2013-08-03 14:49:00,
2013-08-03 10:50:00,78.3,73.1,30.05,West,269,5.9,9.0,84,0.00,OVC,,0.00,WeatherDisplay:10.37,2013-08-03 14:50:00,
2013-08-03 10:51:00,78.6,73.4,30.05,West,269,5.7,10.4,84,0.00,OVC,,0.00,WeatherDisplay:10.37,2013-08-03 14:51:00,
2013-08-03 10:54:00,78.8,72.8,30.05,West,269,5.7,6.9,82,0.00,OVC,,0.00,WeatherDisplay:10.37,2013-08-03 14:54:00,
2013-08-03 10:55:00,78.8,72.5,30.05,West,269,5.0,8.1,81,0.00,OVC,,0.00,WeatherDisplay:10.37,2013-08-03 14:55:00,
2013-08-03 10:56:00,78.8,72.5,30.05,West,269,4.0,6.9,81,0.00,OVC,,0.00,WeatherDisplay:10.37,2013-08-03 14:56:00,
2013-08-03 10:57:00,78.8,72.5,30.05,West,269,0.0,3.5,81,0.00,OVC,,0.00,WeatherDisplay:10.37,2013-08-03 14:57:00,
2013-08-03 11:00:00,79.2,73.6,30.05,West,269,6.0,10.0,83,0.00,OVC,OVC,0.00,WeatherDisplay:10.37,2013-08-03 15:00:00,
2013-08-03 11:01:00,79.6,73.6,30.05,West,269,3.0,5.8,82,0.00,OVC,,0.00,WeatherDisplay:10.37,2013-08-03 15:01:00,
2013-08-03 11:02:00,79.8,73.4,30.05,West,269,2.3,5.8,81,0.00,OVC,,0.00,WeatherDisplay:10.37,2013-08-03 15:02:00,
2013-08-03 11:03:00,79.8,73.1,30.05,West,269,2.9,5.8,80,0.00,OVC,,0.00,WeatherDisplay:10.37,2013-08-03 15:03:00,
2013-08-03 11:05:00,79.9,73.5,30.05,West,269,1.0,5.8,81,0.00,OVC,,0.00,WeatherDisplay:10.37,2013-08-03 15:05:00,
2013-08-03 11:06:00,79.9,73.5,30.05,West,269,3.5,5.8,81,0.00,OVC,,0.00,WeatherDisplay:10.37,2013-08-03 15:06:00,
2013-08-03 11:09:00,80.1,73.0,30.05,West,269,8.3,11.5,79,0.00,OVC,,0.00,WeatherDisplay:10.37,2013-08-03 15:09:00,
2013-08-03 11:11:00,79.9,72.4,30.05,West,269,9.3,11.5,78,0.00,OVC,,0.00,WeatherDisplay:10.37,2013-08-03 15:11:00,
2013-08-03 11:13:00,79.8,72.3,30.05,West,269,6.1,8.1,78,0.00,OVC,,0.00,WeatherDisplay:10.37,2013-08-03 15:13:00,
2013-08-03 11:14:00,79.9,72.4,30.05,West,269,6.4,8.1,78,0.00,OVC,,0.00,WeatherDisplay:10.37,2013-08-03 15:14:00,
2013-08-03 11:16:00,79.9,72.4,30.05,West,270,8.8,10.4,78,0.00,OVC,,0.00,WeatherDisplay:10.37,2013-08-03 15:16:00,
2013-08-03 11:17:00,79.8,72.7,30.05,West,267,9.6,11.5,79,0.00,OVC,,0.00,WeatherDisplay:10.37,2013-08-03 15:17:00,
2013-08-03 11:18:00,79.8,72.7,30.05,West,265,6.7,9.2,79,0.00,OVC,,0.00,WeatherDisplay:10.37,2013-08-03 15:18:00,
2013-08-03 11:19:00,79.9,72.8,30.05,West,265,6.0,9.2,79,0.00,OVC,,0.00,WeatherDisplay:10.37,2013-08-03 15:19:00,
2013-08-03 11:22:00,80.1,73.0,30.05,West,265,6.3,11.0,79,0.00,OVC,,0.00,WeatherDisplay:10.37,2013-08-03 15:22:00,
2013-08-03 11:24:00,80.3,72.8,30.05,WSW,240,7.0,11.5,78,0.00,OVC,,0.00,WeatherDisplay:10.37,2013-08-03 15:24:00,
2013-08-03 11:27:00,80.5,73.0,30.05,WSW,238,7.8,11.5,78,0.00,OVC,,0.00,WeatherDisplay:10.37,2013-08-03 15:27:00,
2013-08-03 11:28:00,80.7,73.2,30.05,SW,234,7.5,11.5,78,0.00,OVC,,0.00,WeatherDisplay:10.37,2013-08-03 15:28:00,
2013-08-03 11:29:00,80.7,72.8,30.05,SW,234,4.8,6.9,77,0.00,OVC,,0.00,WeatherDisplay:10.37,2013-08-03 15:29:00,
2013-08-03 11:30:00,80.7,72.8,30.05,WSW,242,3.0,12.0,77,0.00,OVC,OVC,0.00,WeatherDisplay:10.37,2013-08-03 15:30:00,
2013-08-03 11:33:00,81.2,72.9,30.05,SW,228,11.8,15.0,76,0.00,OVC,,0.00,WeatherDisplay:10.37,2013-08-03 15:33:00,
2013-08-03 11:34:00,81.4,73.1,30.05,SW,226,12.0,15.0,76,0.00,OVC,,0.00,WeatherDisplay:10.37,2013-08-03 15:34:00,
2013-08-03 11:35:00,81.4,72.7,30.05,SW,229,11.1,12.7,75,0.00,OVC,,0.00,WeatherDisplay:10.37,2013-08-03 15:35:00,
2013-08-03 11:38:00,81.6,73.3,30.04,SSW,210,12.6,16.0,76,0.00,OVC,,0.00,WeatherDisplay:10.37,2013-08-03 15:38:00,
2013-08-03 11:41:00,81.6,72.5,30.04,SW,221,9.6,12.7,74,0.00,OVC,,0.00,WeatherDisplay:10.37,2013-08-03 15:41:00,
2013-08-03 11:42:00,81.6,72.9,30.04,SW,220,7.1,11.5,75,0.00,OVC,,0.00,WeatherDisplay:10.37,2013-08-03 15:42:00,
2013-08-03 11:43:00,81.8,73.9,30.04,SW,234,10.5,11.5,77,0.00,OVC,,0.00,WeatherDisplay:10.37,2013-08-03 15:43:00,
2013-08-03 11:44:00,81.8,73.1,30.04,SW,234,9.7,12.7,75,0.00,OVC,,0.00,WeatherDisplay:10.37,2013-08-03 15:44:00,
2013-08-03 11:46:00,81.8,73.5,30.04,SW,233,5.3,9.2,76,0.00,OVC,,0.00,WeatherDisplay:10.37,2013-08-03 15:46:00,
2013-08-03 11:48:00,82.0,73.7,30.04,SW,219,6.5,13.0,76,0.00,OVC,,0.00,WeatherDisplay:10.37,2013-08-03 15:48:00,
2013-08-03 11:49:00,82.0,72.5,30.04,SW,223,11.1,12.7,73,0.00,OVC,,0.00,WeatherDisplay:10.37,2013-08-03 15:49:00,
2013-08-03 11:50:00,82.2,73.9,30.04,SW,236,10.8,12.7,76,0.00,OVC,,0.00,WeatherDisplay:10.37,2013-08-03 15:50:00,
2013-08-03 11:52:00,82.6,74.3,30.04,SW,230,5.6,11.5,76,0.00,OVC,,0.00,WeatherDisplay:10.37,2013-08-03 15:52:00,
2013-08-03 11:54:00,82.6,72.2,30.04,WSW,238,13.4,16.1,71,0.00,OVC,,0.00,WeatherDisplay:10.37,2013-08-03 15:54:00,
2013-08-03 11:55:00,82.6,72.2,30.04,SW,226,11.7,16.1,71,0.00,OVC,,0.00,WeatherDisplay:10.37,2013-08-03 15:55:00,
2013-08-03 11:57:00,82.6,72.2,30.04,SW,231,13.7,16.1,71,0.00,OVC,,0.00,WeatherDisplay:10.37,2013-08-03 15:57:00,
2013-08-03 11:58:00,82.6,71.8,30.04,SW,232,14.5,18.0,70,0.00,OVC,,0.00,WeatherDisplay:10.37,2013-08-03 15:58:00,
2013-08-03 11:59:00,82.4,71.6,30.04,WSW,251,11.6,17.3,70,0.00,OVC,,0.00,WeatherDisplay:10.37,2013-08-03 15:59:00,
2013-08-03 12:02:00,82.2,72.3,30.04,WSW,250,5.2,12.7,72,0.00,BKN,OVC,0.00,WeatherDisplay:10.37,2013-08-03 16:02:00,
2013-08-03 12:03:00,82.4,72.0,30.04,WSW,244,7.3,8.0,71,0.00,BKN,OVC,0.00,WeatherDisplay:10.37,2013-08-03 16:03:00,
2013-08-03 12:04:00,82.2,71.9,30.04,WSW,246,7.4,10.4,71,0.00,BKN,OVC,0.00,WeatherDisplay:10.37,2013-08-03 16:04:00,
2013-08-03 12:06:00,82.6,72.7,30.04,WSW,245,6.9,9.2,72,0.00,BKN,OVC,0.00,WeatherDisplay:10.37,2013-08-03 16:06:00,
2013-08-03 12:08:00,83.0,73.4,30.04,SSW,205,10.8,15.0,73,0.00,BKN,OVC,0.00,WeatherDisplay:10.37,2013-08-03 16:08:00,
2013-08-03 12:09:00,83.0,73.0,30.04,SSW,213,10.6,15.0,72,0.00,BKN,OVC,0.00,WeatherDisplay:10.37,2013-08-03 16:09:00,
2013-08-03 12:10:00,83.2,72.4,30.03,SSW,207,11.6,13.8,70,0.00,BKN,OVC,0.00,WeatherDisplay:10.37,2013-08-03 16:10:00,
2013-08-03 12:11:00,83.2,72.4,30.03,SW,225,11.9,13.8,70,0.00,BKN,OVC,0.00,WeatherDisplay:10.37,2013-08-03 16:11:00,
2013-08-03 12:13:00,83.0,72.6,30.03,WSW,250,9.3,12.7,71,0.00,BKN,OVC,0.00,WeatherDisplay:10.37,2013-08-03 16:13:00,
2013-08-03 12:16:00,82.8,73.3,30.04,WSW,242,7.8,9.2,73,0.00,BKN,OVC,0.00,WeatherDisplay:10.37,2013-08-03 16:16:00,
2013-08-03 12:17:00,82.8,72.8,30.04,WSW,245,6.7,11.5,72,0.00,BKN,OVC,0.00,WeatherDisplay:10.37,2013-08-03 16:17:00,
2013-08-03 12:18:00,82.8,73.3,30.04,SW,221,10.9,14.0,73,0.00,BKN,OVC,0.00,WeatherDisplay:10.37,2013-08-03 16:18:00,
2013-08-03 12:21:00,83.0,70.9,30.03,SW,225,9.4,13.8,67,0.00,BKN,OVC,0.00,WeatherDisplay:10.37,2013-08-03 16:21:00,
2013-08-03 12:23:00,83.0,71.3,30.03,SW,227,7.4,10.4,68,0.00,BKN,OVC,0.00,WeatherDisplay:10.37,2013-08-03 16:23:00,
2013-08-03 12:25:00,83.2,71.1,30.03,SSW,202,11.6,15.0,67,0.00,BKN,OVC,0.00,WeatherDisplay:10.37,2013-08-03 16:25:00,
2013-08-03 12:27:00,83.4,71.7,30.03,SW,223,12.9,16.1,68,0.00,BKN,OVC,0.00,WeatherDisplay:10.37,2013-08-03 16:27:00,
2013-08-03 12:29:00,83.4,71.3,30.03,SW,214,13.7,15.0,67,0.00,BKN,OVC,0.00,WeatherDisplay:10.37,2013-08-03 16:29:00,
2013-08-03 12:30:00,83.4,70.8,30.03,SW,225,10.9,13.8,66,0.00,BKN,OVC,0.00,WeatherDisplay:10.37,2013-08-03 16:30:00,
2013-08-03 12:31:00,83.4,70.8,30.03,SW,225,11.8,12.7,66,0.00,BKN,OVC,0.00,WeatherDisplay:10.37,2013-08-03 16:31:00,
2013-08-03 12:32:00,83.4,70.8,30.03,SW,236,8.6,12.7,66,0.00,BKN,OVC,0.00,WeatherDisplay:10.37,2013-08-03 16:32:00,
2013-08-03 12:34:00,83.6,71.0,30.03,SW,221,10.1,12.7,66,0.00,BKN,OVC,0.00,WeatherDisplay:10.37,2013-08-03 16:34:00,
2013-08-03 12:35:00,83.6,71.0,30.03,SW,229,9.5,12.7,66,0.00,BKN,OVC,0.00,WeatherDisplay:10.37,2013-08-03 16:35:00,
2013-08-03 12:36:00,83.8,70.8,30.03,SW,230,16.1,20.0,65,0.00,BKN,OVC,0.00,WeatherDisplay:10.37,2013-08-03 16:36:00,
2013-08-03 12:37:00,83.6,70.1,30.03,SW,234,15.0,20.0,64,0.00,BKN,OVC,0.00,WeatherDisplay:10.37,2013-08-03 16:37:00,
2013-08-03 12:40:00,83.6,70.6,30.03,SW,220,10.7,20.0,65,0.00,BKN,OVC,0.00,WeatherDisplay:10.37,2013-08-03 16:40:00,
2013-08-03 12:41:00,83.6,69.7,30.04,SW,225,10.1,13.8,63,0.00,BKN,OVC,0.00,WeatherDisplay:10.37,2013-08-03 16:41:00,
2013-08-03 12:42:00,83.6,70.6,30.04,SW,225,10.8,13.8,65,0.00,BKN,OVC,0.00,WeatherDisplay:10.37,2013-08-03 16:42:00,
2013-08-03 12:45:00,83.6,70.6,30.04,WSW,237,11.3,13.8,65,0.00,BKN,OVC,0.00,WeatherDisplay:10.37,2013-08-03 16:45:00,
2013-08-03 12:46:00,83.6,70.6,30.03,SW,235,9.7,12.7,65,0.00,BKN,OVC,0.00,WeatherDisplay:10.37,2013-08-03 16:46:00,
2013-08-03 12:47:00,83.6,70.6,30.03,SW,235,9.2,12.7,65,0.00,BKN,OVC,0.00,WeatherDisplay:10.37,2013-08-03 16:47:00,
2013-08-03 12:48:00,83.6,72.3,30.04,SW,234,10.7,15.0,69,0.00,BKN,OVC,0.00,WeatherDisplay:10.37,2013-08-03 16:48:00,
2013-08-03 12:50:00,83.8,71.2,30.04,SW,217,9.7,14.0,66,0.00,BKN,OVC,0.00,WeatherDisplay:10.37,2013-08-03 16:50:00,
2013-08-03 12:52:00,84.0,71.4,30.03,SW,217,7.1,13.8,66,0.00,BKN,OVC,0.00,WeatherDisplay:10.37,2013-08-03 16:52:00,
2013-08-03 12:53:00,84.0,71.9,30.03,SW,217,6.9,10.0,67,0.00,BKN,OVC,0.00,WeatherDisplay:10.37,2013-08-03 16:53:00,
2013-08-03 12:54:00,84.1,72.0,30.03,SW,215,8.5,10.0,67,0.00,BKN,OVC,0.00,WeatherDisplay:10.37,2013-08-03 16:54:00,
2013-08-03 12:57:00,84.5,71.9,30.03,SW,229,12.5,16.1,66,0.00,BKN,OVC,0.00,WeatherDisplay:10.37,2013-08-03 16:57:00,
2013-08-03 12:58:00,84.3,70.3,30.03,SW,229,4.7,10.4,63,0.00,BKN,OVC,0.00,WeatherDisplay:10.37,2013-08-03 16:58:00,
2013-08-03 12:59:00,84.3,71.2,30.03,SW,232,4.7,5.8,65,0.00,BKN,OVC,0.00,WeatherDisplay:10.37,2013-08-03 16:59:00,
2013-08-03 13:02:00,84.3,70.3,30.03,SSW,208,14.2,18.4,63,0.00,BKN,OVC,0.00,WeatherDisplay:10.37,2013-08-03 17:02:00,
2013-08-03 13:03:00,84.1,70.1,30.03,SSW,208,13.3,15.0,63,0.00,BKN,OVC,0.00,WeatherDisplay:10.37,2013-08-03 17:03:00,
2013-08-03 13:04:00,84.0,69.6,30.03,SSW,213,11.4,12.7,62,0.00,BKN,OVC,0.00,WeatherDisplay:10.37,2013-08-03 17:04:00,
2013-08-03 13:06:00,84.0,71.0,30.03,SSW,207,12.0,16.1,65,0.00,BKN,OVC,0.00,WeatherDisplay:10.37,2013-08-03 17:06:00,
2013-08-03 13:09:00,84.1,70.6,30.02,SW,219,11.2,13.8,64,0.00,BKN,OVC,0.00,WeatherDisplay:10.37,2013-08-03 17:09:00,
2013-08-03 13:10:00,84.1,71.5,30.02,SSW,213,11.9,13.8,66,0.00,BKN,OVC,0.00,WeatherDisplay:10.37,2013-08-03 17:10:00,
2013-08-03 13:11:00,84.1,71.5,30.02,SSW,213,11.4,13.8,66,0.00,BKN,OVC,0.00,WeatherDisplay:10.37,2013-08-03 17:11:00,
2013-08-03 13:12:00,84.1,70.1,30.02,SW,215,9.6,15.0,63,0.00,BKN,OVC,0.00,WeatherDisplay:10.37,2013-08-03 17:12:00,
2013-08-03 13:16:00,84.7,71.6,30.02,SW,235,8.7,10.4,65,0.00,BKN,OVC,0.00,WeatherDisplay:10.37,2013-08-03 17:16:00,
2013-08-03 13:17:00,84.7,71.2,30.02,WSW,239,7.0,10.4,64,0.00,BKN,OVC,0.00,WeatherDisplay:10.37,2013-08-03 17:17:00,
2013-08-03 13:21:00,84.5,71.4,30.02,WSW,240,9.6,13.0,65,0.00,BKN,OVC,0.00,WeatherDisplay:10.37,2013-08-03 17:21:00,
2013-08-03 13:22:00,84.3,71.2,30.02,WSW,238,10.4,13.0,65,0.00,BKN,OVC,0.00,WeatherDisplay:10.37,2013-08-03 17:22:00,
2013-08-03 13:26:00,84.1,69.7,30.02,SW,236,6.1,11.5,62,0.00,BKN,OVC,0.00,WeatherDisplay:10.37,2013-08-03 17:26:00,
2013-08-03 13:27:00,84.1,69.7,30.02,SW,236,5.7,6.9,62,0.00,BKN,OVC,0.00,WeatherDisplay:10.37,2013-08-03 17:27:00,
2013-08-03 13:28:00,84.1,70.1,30.02,SW,236,5.6,6.9,63,0.00,BKN,OVC,0.00,WeatherDisplay:10.37,2013-08-03 17:28:00,
2013-08-03 13:32:00,84.3,71.2,30.02,SW,227,8.9,12.0,65,0.00,BKN,OVC,0.00,WeatherDisplay:10.37,2013-08-03 17:32:00,
2013-08-03 13:33:00,84.3,70.3,30.02,SW,229,14.2,16.1,63,0.00,BKN,OVC,0.00,WeatherDisplay:10.37,2013-08-03 17:33:00,
2013-08-03 13:34:00,84.5,71.0,30.02,SW,221,11.3,15.0,64,0.00,BKN,OVC,0.00,WeatherDisplay:10.37,2013-08-03 17:34:00,
2013-08-03 13:38:00,84.5,71.0,30.02,SW,236,7.7,12.7,64,0.00,BKN,OVC,0.00,WeatherDisplay:10.37,2013-08-03 17:38:00,
2013-08-03 13:39:00,84.7,69.8,30.02,SW,234,9.5,12.7,61,0.00,BKN,OVC,0.00,WeatherDisplay:10.37,2013-08-03 17:39:00,
2013-08-03 13:41:00,84.7,71.2,30.02,SW,233,8.0,11.5,64,0.00,BKN,OVC,0.00,WeatherDisplay:10.37,2013-08-03 17:41:00,
2013-08-03 13:43:00,84.7,70.2,30.02,WSW,248,7.2,11.5,62,0.00,BKN,OVC,0.00,WeatherDisplay:10.37,2013-08-03 17:43:00,
2013-08-03 13:45:00,84.7,69.8,30.02,SW,235,10.0,16.0,61,0.00,BKN,OVC,0.00,WeatherDisplay:10.37,2013-08-03 17:45:00,
2013-08-03 13:46:00,84.7,69.8,30.02,SW,233,9.7,13.8,61,0.00,BKN,OVC,0.00,WeatherDisplay:10.37,2013-08-03 17:46:00,
2013-08-03 13:48:00,84.7,70.2,30.02,SW,233,6.8,8.0,62,0.00,BKN,OVC,0.00,WeatherDisplay:10.37,2013-08-03 17:48:00,
2013-08-03 13:49:00,84.7,70.2,30.02,WSW,244,6.6,12.0,62,0.00,BKN,OVC,0.00,WeatherDisplay:10.37,2013-08-03 17:49:00,
2013-08-03 13:50:00,84.7,70.2,30.02,SSW,213,13.2,18.4,62,0.00,BKN,OVC,0.00,WeatherDisplay:10.37,2013-08-03 17:50:00,
2013-08-03 13:51:00,84.7,70.2,30.02,SW,219,13.2,16.1,62,0.00,BKN,OVC,0.00,WeatherDisplay:10.37,2013-08-03 17:51:00,
2013-08-03 13:54:00,84.5,70.5,30.02,SW,222,13.2,16.1,63,0.00,BKN,OVC,0.00,WeatherDisplay:10.37,2013-08-03 17:54:00,
2013-08-03 13:56:00,84.5,70.0,30.02,SW,219,10.7,13.8,62,0.00,BKN,OVC,0.00,WeatherDisplay:10.37,2013-08-03 17:56:00,
2013-08-03 13:57:00,84.7,70.2,30.02,SW,223,9.8,11.5,62,0.00,BKN,OVC,0.00,WeatherDisplay:10.37,2013-08-03 17:57:00,
2013-08-03 13:58:00,84.7,70.7,30.02,SW,225,9.4,11.5,63,0.00,BKN,OVC,0.00,WeatherDisplay:10.37,2013-08-03 17:58:00,
2013-08-03 14:00:00,84.9,70.4,30.02,WSW,240,4.6,6.9,62,0.00,BKN,OVC,0.00,WeatherDisplay:10.37,2013-08-03 18:00:00,
2013-08-03 14:02:00,85.1,69.7,30.02,SSW,213,10.4,12.7,60,0.00,BKN,OVC,0.00,WeatherDisplay:10.37,2013-08-03 18:02:00,
2013-08-03 14:04:00,85.3,69.8,30.02,SW,234,9.0,11.0,60,0.00,BKN,OVC,0.00,WeatherDisplay:10.37,2013-08-03 18:04:00,
2013-08-03 14:05:00,85.3,69.3,30.02,SW,232,8.9,11.5,59,0.00,BKN,OVC,0.00,WeatherDisplay:10.37,2013-08-03 18:05:00,
2013-08-03 14:07:00,85.3,70.3,30.02,SW,233,7.4,10.4,61,0.00,BKN,OVC,0.00,WeatherDisplay:10.37,2013-08-03 18:07:00,
2013-08-03 14:09:00,85.5,71.5,30.02,SW,235,7.1,12.0,63,0.00,BKN,OVC,0.00,WeatherDisplay:10.37,2013-08-03 18:09:00,
2013-08-03 14:11:00,85.5,70.0,30.02,SSW,213,11.5,13.8,60,0.00,BKN,OVC,0.00,WeatherDisplay:10.37,2013-08-03 18:11:00,
2013-08-03 14:13:00,85.3,68.8,30.02,SSW,204,13.9,17.3,58,0.00,BKN,OVC,0.00,WeatherDisplay:10.37,2013-08-03 18:13:00,
2013-08-03 14:15:00,85.2,69.2,30.02,SW,220,10.0,17.0,59,0.00,BKN,OVC,0.00,WeatherDisplay:10.37,2013-08-03 18:15:00,
2013-08-03 14:16:00,85.1,70.6,30.02,SSW,213,9.8,11.5,62,0.00,BKN,OVC,0.00,WeatherDisplay:10.37,2013-08-03 18:16:00,
2013-08-03 14:18:00,85.1,70.6,30.02,SW,229,12.1,15.0,62,0.00,BKN,OVC,0.00,WeatherDisplay:10.37,2013-08-03 18:18:00,
2013-08-03 14:22:00,84.3,70.3,30.02,SW,229,12.6,15.0,63,0.00,BKN,OVC,0.00,WeatherDisplay:10.37,2013-08-03 18:22:00,
2013-08-03 14:23:00,84.1,69.7,30.01,SW,230,13.4,16.1,62,0.00,BKN,OVC,0.00,WeatherDisplay:10.37,2013-08-03 18:23:00,
2013-08-03 14:24:00,84.1,69.7,30.01,SW,228,13.3,16.1,62,0.00,BKN,OVC,0.00,WeatherDisplay:10.37,2013-08-03 18:24:00,
2013-08-03 14:25:00,84.0,70.0,30.01,WSW,238,11.7,16.1,63,0.00,BKN,OVC,0.00,WeatherDisplay:10.37,2013-08-03 18:25:00,
2013-08-03 14:27:00,83.8,69.9,30.01,WSW,248,8.0,11.5,63,0.00,BKN,OVC,0.00,WeatherDisplay:10.37,2013-08-03 18:27:00,
2013-08-03 14:28:00,83.8,69.9,30.01,WSW,248,6.1,11.5,63,0.00,BKN,OVC,0.00,WeatherDisplay:10.37,2013-08-03 18:28:00,
2013-08-03 14:29:00,84.0,71.0,30.01,WSW,246,8.9,11.5,65,0.00,BKN,OVC,0.00,WeatherDisplay:10.37,2013-08-03 18:29:00,
2013-08-03 14:30:00,84.0,70.0,30.01,WSW,244,9.5,11.5,63,0.00,BKN,OVC,0.00,WeatherDisplay:10.37,2013-08-03 18:30:00,
2013-08-03 14:33:00,84.3,69.9,30.01,WSW,242,5.6,10.4,62,0.00,BKN,OVC,0.00,WeatherDisplay:10.37,2013-08-03 18:33:00,
2013-08-03 14:34:00,84.3,71.2,30.01,WSW,242,4.8,6.9,65,0.00,BKN,OVC,0.00,WeatherDisplay:10.37,2013-08-03 18:34:00,
2013-08-03 14:37:00,84.7,70.2,30.02,SW,234,7.2,11.5,62,0.00,BKN,OVC,0.00,WeatherDisplay:10.37,2013-08-03 18:37:00,
2013-08-03 14:38:00,84.9,69.5,30.02,SW,233,4.7,9.2,60,0.00,BKN,OVC,0.00,WeatherDisplay:10.37,2013-08-03 18:38:00,
2013-08-03 14:39:00,84.9,69.9,30.02,SW,233,5.8,10.4,61,0.00,BKN,OVC,0.00,WeatherDisplay:10.37,2013-08-03 18:39:00,
2013-08-03 14:42:00,85.1,69.2,30.00,WSW,240,7.8,11.0,59,0.00,BKN,OVC,0.00,WeatherDisplay:10.37,2013-08-03 18:42:00,
2013-08-03 14:43:00,85.1,69.2,30.00,WSW,240,8.1,9.2,59,0.00,BKN,OVC,0.00,WeatherDisplay:10.37,2013-08-03 18:43:00,
2013-08-03 14:44:00,85.3,69.3,30.00,WSW,252,7.8,11.5,59,0.00,BKN,OVC,0.00,WeatherDisplay:10.37,2013-08-03 18:44:00,
2013-08-03 14:46:00,85.5,70.5,30.00,WSW,257,5.3,6.9,61,0.00,BKN,OVC,0.00,WeatherDisplay:10.37,2013-08-03 18:46:00,
2013-08-03 14:48:00,85.7,70.2,30.00,WSW,252,11.1,16.1,60,0.00,BKN,OVC,0.00,WeatherDisplay:10.37,2013-08-03 18:48:00,
2013-08-03 14:49:00,85.7,69.7,30.00,WSW,250,9.6,11.5,59,0.00,BKN,OVC,0.00,WeatherDisplay:10.37,2013-08-03 18:49:00,
2013-08-03 14:50:00,85.9,68.4,30.00,WSW,257,7.9,12.7,56,0.00,BKN,OVC,0.00,WeatherDisplay:10.37,2013-08-03 18:50:00,
2013-08-03 14:51:00,85.9,67.9,30.00,West,266,9.4,12.0,55,0.00,BKN,OVC,0.00,WeatherDisplay:10.37,2013-08-03 18:51:00,
2013-08-03 14:52:00,85.9,68.4,30.00,West,266,10.3,14.0,56,0.00,BKN,OVC,0.00,WeatherDisplay:10.37,2013-08-03 18:52:00,
2013-08-03 14:54:00,85.9,67.3,30.00,West,267,12.0,16.1,54,0.00,BKN,OVC,0.00,WeatherDisplay:10.37,2013-08-03 18:54:00,
2013-08-03 14:55:00,85.9,67.9,30.00,WSW,256,10.2,11.5,55,0.00,BKN,OVC,0.00,WeatherDisplay:10.37,2013-08-03 18:55:00,
2013-08-03 14:58:00,85.9,67.3,30.00,WSW,248,13.4,15.0,54,0.00,BKN,OVC,0.00,WeatherDisplay:10.37,2013-08-03 18:58:00,
2013-08-03 14:59:00,85.9,66.8,30.00,SSW,213,11.9,14.0,53,0.00,BKN,OVC,0.00,WeatherDisplay:10.37,2013-08-03 18:59:00,
2013-08-03 15:02:00,85.9,68.4,30.00,WSW,238,7.1,10.4,56,0.00,BKN,OVC,0.00,WeatherDisplay:10.37,2013-08-03 19:02:00,
2013-08-03 15:03:00,86.1,68.6,30.00,WSW,241,6.7,10.4,56,0.00,BKN,OVC,0.00,WeatherDisplay:10.37,2013-08-03 19:03:00,
2013-08-03 15:04:00,86.3,69.3,30.00,WSW,238,8.7,11.0,57,0.00,BKN,OVC,0.00,WeatherDisplay:10.37,2013-08-03 19:04:00,
2013-08-03 15:05:00,86.3,68.8,30.00,SW,236,6.6,11.5,56,0.00,BKN,OVC,0.00,WeatherDisplay:10.37,2013-08-03 19:05:00,
2013-08-03 15:06:00,86.3,69.3,30.00,SW,217,8.1,12.0,57,0.00,BKN,OVC,0.00,WeatherDisplay:10.37,2013-08-03 19:06:00,
2013-08-03 15:07:00,86.5,69.5,30.00,West,265,9.3,12.0,57,0.00,BKN,OVC,0.00,WeatherDisplay:10.37,2013-08-03 19:07:00,
2013-08-03 15:08:00,86.3,69.3,30.00,West,261,8.9,12.0,57,0.00,BKN,OVC,0.00,WeatherDisplay:10.37,2013-08-03 19:08:00,
2013-08-03 15:09:00,86.5,69.5,30.00,West,262,8.8,12.0,57,0.00,BKN,OVC,0.00,WeatherDisplay:10.37,2013-08-03 19:09:00,
2013-08-03 15:13:00,86.5,70.0,30.00,West,271,5.9,14.0,58,0.00,BKN,OVC,0.00,WeatherDisplay:10.37,2013-08-03 19:13:00,
2013-08-03 15:14:00,86.3,68.2,30.00,West,267,8.0,13.8,55,0.00,BKN,OVC,0.00,WeatherDisplay:10.37,2013-08-03 19:14:00,
2013-08-03 15:15:00,86.4,68.9,30.00,WSW,255,6.0,14.0,56,0.00,BKN,OVC,0.00,WeatherDisplay:10.37,2013-08-03 19:15:00,
2013-08-03 15:17:00,86.7,70.2,30.00,West,267,9.5,11.5,58,0.00,BKN,OVC,0.00,WeatherDisplay:10.37,2013-08-03 19:17:00,
2013-08-03 15:20:00,86.3,67.7,30.00,SW,225,13.8,17.3,54,0.00,BKN,OVC,0.00,WeatherDisplay:10.37,2013-08-03 19:20:00,
2013-08-03 15:22:00,85.7,69.2,30.00,SW,229,11.0,12.7,58,0.00,BKN,OVC,0.00,WeatherDisplay:10.37,2013-08-03 19:22:00,
2013-08-03 15:25:00,85.7,68.7,29.99,SW,234,8.1,11.5,57,0.00,BKN,OVC,0.00,WeatherDisplay:10.37,2013-08-03 19:25:00,
2013-08-03 15:26:00,85.5,68.5,29.99,SW,223,8.5,11.0,57,0.00,BKN,OVC,0.00,WeatherDisplay:10.37,2013-08-03 19:26:00,
2013-08-03 15:29:00,85.3,69.3,29.99,SW,225,6.2,8.1,59,0.00,BKN,OVC,0.00,WeatherDisplay:10.37,2013-08-03 19:29:00,
2013-08-03 15:32:00,85.1,68.7,29.99,SW,235,7.8,11.0,58,0.00,BKN,OVC,0.00,WeatherDisplay:10.37,2013-08-03 19:32:00,
2013-08-03 15:33:00,85.1,68.7,29.99,WSW,238,7.0,11.5,58,0.00,BKN,OVC,0.00,WeatherDisplay:10.37,2013-08-03 19:33:00,
2013-08-03 15:34:00,85.3,69.3,29.99,WSW,238,8.5,11.5,59,0.00,BKN,OVC,0.00,WeatherDisplay:10.37,2013-08-03 19:34:00,
2013-08-03 15:39:00,85.7,69.7,29.99,SW,230,13.5,16.1,59,0.00,BKN,OVC,0.00,WeatherDisplay:10.37,2013-08-03 19:39:00,
2013-08-03 15:40:00,85.7,70.2,29.99,SW,234,12.4,16.1,60,0.00,BKN,OVC,0.00,WeatherDisplay:10.37,2013-08-03 19:40:00,
2013-08-03 15:41:00,85.7,71.7,29.99,SW,232,11.2,13.8,63,0.00,BKN,OVC,0.00,WeatherDisplay:10.37,2013-08-03 19:41:00,
2013-08-03 15:43:00,85.5,70.0,29.99,SW,234,9.5,11.5,60,0.00,BKN,OVC,0.00,WeatherDisplay:10.37,2013-08-03 19:43:00,
2013-08-03 15:44:00,85.5,69.5,29.99,West,259,9.5,12.7,59,0.00,BKN,OVC,0.00,WeatherDisplay:10.37,2013-08-03 19:44:00,
2013-08-03 15:46:00,85.5,70.0,29.99,WSW,246,7.2,10.4,60,0.00,BKN,OVC,0.00,WeatherDisplay:10.37,2013-08-03 19:46:00,
2013-08-03 15:48:00,85.5,70.5,29.99,WSW,246,10.0,13.8,61,0.00,BKN,OVC,0.00,WeatherDisplay:10.37,2013-08-03 19:48:00,
2013-08-03 15:50:00,85.3,70.8,29.99,SW,229,9.0,12.7,62,0.00,BKN,OVC,0.00,WeatherDisplay:10.37,2013-08-03 19:50:00,
2013-08-03 15:52:00,85.5,71.0,29.99,SW,220,9.3,12.7,62,0.00,BKN,OVC,0.00,WeatherDisplay:10.37,2013-08-03 19:52:00,
2013-08-03 15:53:00,85.5,71.0,29.99,WSW,239,7.9,12.7,62,0.00,BKN,OVC,0.00,WeatherDisplay:10.37,2013-08-03 19:53:00,
2013-08-03 15:55:00,85.7,70.2,29.99,WSW,250,8.9,13.8,60,0.00,BKN,OVC,0.00,WeatherDisplay:10.37,2013-08-03 19:55:00,
2013-08-03 15:57:00,85.7,71.2,29.99,SW,234,8.8,11.5,62,0.00,BKN,OVC,0.00,WeatherDisplay:10.37,2013-08-03 19:57:00,
2013-08-03 15:58:00,85.9,70.4,29.99,SW,234,7.5,11.5,60,0.00,BKN,OVC,0.00,WeatherDisplay:10.37,2013-08-03 19:58:00,
2013-08-03 15:59:00,85.9,70.4,29.99,SW,234,6.8,11.5,60,0.00,BKN,OVC,0.00,WeatherDisplay:10.37,2013-08-03 19:59:00,
2013-08-03 16:01:00,86.3,71.7,29.99,SW,233,4.5,5.8,62,0.00,BKN,OVC,0.00,WeatherDisplay:10.37,2013-08-03 20:01:00,
2013-08-03 16:03:00,86.3,69.8,29.99,SW,219,9.7,11.5,58,0.00,BKN,OVC,0.00,WeatherDisplay:10.37,2013-08-03 20:03:00,
2013-08-03 16:04:00,86.1,69.6,29.99,SW,224,10.4,11.5,58,0.00,BKN,OVC,0.00,WeatherDisplay:10.37,2013-08-03 20:04:00,
2013-08-03 16:05:00,86.1,70.1,29.99,SW,229,9.4,11.5,59,0.00,BKN,OVC,0.00,WeatherDisplay:10.37,2013-08-03 20:05:00,
2013-08-03 16:07:00,85.9,70.9,29.99,WSW,253,10.8,13.0,61,0.00,BKN,OVC,0.00,WeatherDisplay:10.37,2013-08-03 20:07:00,
2013-08-03 16:09:00,85.7,69.7,29.99,West,259,6.5,11.5,59,0.00,BKN,OVC,0.00,WeatherDisplay:10.37,2013-08-03 20:09:00,
2013-08-03 16:10:00,85.7,69.7,29.99,WSW,254,7.0,11.5,59,0.00,BKN,OVC,0.00,WeatherDisplay:10.37,2013-08-03 20:10:00,
2013-08-03 16:11:00,85.5,69.5,29.99,WSW,252,6.8,11.5,59,0.00,BKN,OVC,0.00,WeatherDisplay:10.37,2013-08-03 20:11:00,
2013-08-03 16:12:00,85.5,70.0,29.99,WSW,250,7.8,11.5,60,0.00,BKN,OVC,0.00,WeatherDisplay:10.37,2013-08-03 20:12:00,
2013-08-03 16:16:00,85.3,70.3,29.99,SW,216,7.7,11.0,61,0.00,BKN,OVC,0.00,WeatherDisplay:10.37,2013-08-03 20:16:00,
2013-08-03 16:17:00,85.1,69.7,29.99,SW,220,8.5,11.5,60,0.00,BKN,OVC,0.00,WeatherDisplay:10.37,2013-08-03 20:17:00,
2013-08-03 16:19:00,85.1,71.5,29.99,SW,225,10.6,11.5,64,0.00,BKN,OVC,0.00,WeatherDisplay:10.37,2013-08-03 20:19:00,
2013-08-03 16:21:00,84.9,70.4,29.99,SW,233,8.4,13.8,62,0.00,BKN,OVC,0.00,WeatherDisplay:10.37,2013-08-03 20:21:00,
2013-08-03 16:22:00,84.9,69.9,29.98,WSW,242,6.0,10.4,61,0.00,BKN,OVC,0.00,WeatherDisplay:10.37,2013-08-03 20:22:00,
2013-08-03 16:23:00,84.9,70.4,29.98,WSW,242,8.3,9.2,62,0.00,BKN,OVC,0.00,WeatherDisplay:10.37,2013-08-03 20:23:00,
2013-08-03 16:26:00,85.1,70.1,29.98,SW,235,10.3,10.4,61,0.00,BKN,OVC,0.00,WeatherDisplay:10.37,2013-08-03 20:26:00,
2013-08-03 16:27:00,85.3,70.8,29.98,WSW,242,8.2,13.0,62,0.00,BKN,OVC,0.00,WeatherDisplay:10.37,2013-08-03 20:27:00,
2013-08-03 16:28:00,85.5,69.5,29.98,SW,235,11.3,17.0,59,0.00,BKN,OVC,0.00,WeatherDisplay:10.37,2013-08-03 20:28:00,
2013-08-03 16:29:00,85.5,69.5,29.98,SW,225,12.2,17.3,59,0.00,BKN,OVC,0.00,WeatherDisplay:10.37,2013-08-03 20:29:00,
2013-08-03 16:32:00,85.7,70.2,29.98,West,266,9.8,15.0,60,0.00,BKN,OVC,0.00,WeatherDisplay:10.37,2013-08-03 20:32:00,
2013-08-03 16:33:00,85.7,70.2,29.98,West,265,6.9,15.0,60,0.00,BKN,OVC,0.00,WeatherDisplay:10.37,2013-08-03 20:33:00,
2013-08-03 16:34:00,85.9,71.4,29.98,WSW,254,6.7,15.0,62,0.00,BKN,OVC,0.00,WeatherDisplay:10.37,2013-08-03 20:34:00,
2013-08-03 16:35:00,85.9,69.9,29.98,SW,232,9.8,15.0,59,0.00,BKN,OVC,0.00,WeatherDisplay:10.37,2013-08-03 20:35:00,
2013-08-03 16:36:00,85.9,69.9,29.98,SW,230,10.7,15.0,59,0.00,BKN,OVC,0.00,WeatherDisplay:10.37,2013-08-03 20:36:00,
2013-08-03 16:37:00,85.9,69.9,29.98,SW,223,13.1,14.0,59,0.00,BKN,OVC,0.00,WeatherDisplay:10.37,2013-08-03 20:37:00,
2013-08-03 16:39:00,85.7,70.2,29.98,SW,227,11.2,14.0,60,0.00,BKN,OVC,0.00,WeatherDisplay:10.37,2013-08-03 20:39:00,
2013-08-03 16:40:00,85.7,70.7,29.98,SW,232,7.2,9.2,61,0.00,BKN,OVC,0.00,WeatherDisplay:10.37,2013-08-03 20:40:00,
2013-08-03 16:41:00,85.7,71.7,29.98,WSW,242,7.3,10.4,63,0.00,BKN,OVC,0.00,WeatherDisplay:10.37,2013-08-03 20:41:00,
2013-08-03 16:45:00,85.7,69.7,29.98,WSW,238,8.0,15.0,59,0.00,BKN,OVC,0.00,WeatherDisplay:10.37,2013-08-03 20:45:00,
2013-08-03 16:46:00,85.7,69.7,29.98,WSW,253,9.8,16.0,59,0.00,BKN,OVC,0.00,WeatherDisplay:10.37,2013-08-03 20:46:00,
2013-08-03 16:47:00,85.5,69.5,29.98,WSW,254,11.6,16.0,59,0.00,BKN,OVC,0.00,WeatherDisplay:10.37,2013-08-03 20:47:00,
2013-08-03 16:50:00,85.7,71.2,29.98,West,265,8.7,11.0,62,0.00,BKN,OVC,0.00,WeatherDisplay:10.37,2013-08-03 20:50:00,
2013-08-03 16:52:00,85.9,71.4,29.98,West,259,6.6,10.4,62,0.00,BKN,OVC,0.00,WeatherDisplay:10.37,2013-08-03 20:52:00,
2013-08-03 16:53:00,86.1,70.6,29.98,SW,234,8.5,10.4,60,0.00,BKN,OVC,0.00,WeatherDisplay:10.37,2013-08-03 20:53:00,
2013-08-03 16:54:00,85.9,69.9,29.98,SW,223,10.2,13.8,59,0.00,BKN,OVC,0.00,WeatherDisplay:10.37,2013-08-03 20:54:00,
2013-08-03 16:55:00,85.9,69.4,29.98,WSW,246,11.1,14.0,58,0.00,BKN,OVC,0.00,WeatherDisplay:10.37,2013-08-03 20:55:00,
2013-08-03 16:58:00,85.7,69.7,29.98,WSW,238,9.9,13.8,59,0.00,BKN,OVC,0.00,WeatherDisplay:10.37,2013-08-03 20:58:00,
2013-08-03 16:59:00,85.7,70.2,29.98,WSW,250,8.1,11.5,60,0.00,BKN,OVC,0.00,WeatherDisplay:10.37,2013-08-03 20:59:00,
2013-08-03 17:01:00,85.5,70.0,29.98,WSW,248,9.3,11.5,60,0.00,OVC,,0.00,WeatherDisplay:10.37,2013-08-03 21:01:00,
2013-08-03 17:03:00,85.3,69.8,29.98,WSW,249,9.5,11.5,60,0.00,OVC,,0.00,WeatherDisplay:10.37,2013-08-03 21:03:00,
2013-08-03 17:05:00,85.3,70.3,29.98,WSW,240,7.8,11.5,61,0.00,OVC,,0.00,WeatherDisplay:10.37,2013-08-03 21:05:00,
2013-08-03 17:08:00,85.5,69.5,29.98,WSW,243,9.6,13.0,59,0.00,OVC,,0.00,WeatherDisplay:10.37,2013-08-03 21:08:00,
2013-08-03 17:09:00,85.5,70.0,29.98,West,263,9.4,13.0,60,0.00,OVC,,0.00,WeatherDisplay:10.37,2013-08-03 21:09:00,
2013-08-03 17:10:00,85.7,70.2,29.98,SW,234,10.2,13.0,60,0.00,OVC,,0.00,WeatherDisplay:10.37,2013-08-03 21:10:00,
2013-08-03 17:11:00,85.7,69.7,29.98,WSW,242,11.6,14.0,59,0.00,OVC,,0.00,WeatherDisplay:10.37,2013-08-03 21:11:00,
2013-08-03 17:12:00,85.7,69.7,29.98,WSW,254,11.2,13.8,59,0.00,OVC,,0.00,WeatherDisplay:10.37,2013-08-03 21:12:00,
2013-08-03 17:14:00,85.7,69.7,29.98,West,266,10.4,11.5,59,0.00,OVC,,0.00,WeatherDisplay:10.37,2013-08-03 21:14:00,
2013-08-03 17:17:00,85.7,69.2,29.98,West,263,12.3,15.0,58,0.00,OVC,,0.00,WeatherDisplay:10.37,2013-08-03 21:17:00,
2013-08-03 17:20:00,85.9,69.4,29.98,WSW,258,7.6,13.8,58,0.00,OVC,,0.00,WeatherDisplay:10.37,2013-08-03 21:20:00,
2013-08-03 17:22:00,85.9,68.9,29.98,SW,222,11.8,16.0,57,0.00,OVC,,0.00,WeatherDisplay:10.37,2013-08-03 21:22:00,
2013-08-03 17:23:00,85.9,69.4,29.98,WSW,242,12.8,16.1,58,0.00,OVC,,0.00,WeatherDisplay:10.37,2013-08-03 21:23:00,
2013-08-03 17:24:00,85.7,70.2,29.98,WSW,246,11.6,15.0,60,0.00,OVC,,0.00,WeatherDisplay:10.37,2013-08-03 21:24:00,
2013-08-03 17:28:00,85.7,70.7,29.98,West,272,7.9,10.4,61,0.00,OVC,,0.00,WeatherDisplay:10.37,2013-08-03 21:28:00,
2013-08-03 17:29:00,85.7,70.2,29.98,West,275,7.5,10.4,60,0.00,OVC,,0.00,WeatherDisplay:10.37,2013-08-03 21:29:00,
2013-08-03 17:32:00,85.9,70.9,29.98,West,271,6.4,11.0,61,0.00,OVC,,0.00,WeatherDisplay:10.37,2013-08-03 21:32:00,
2013-08-03 17:33:00,85.7,70.7,29.98,West,268,9.8,15.0,61,0.00,OVC,,0.00,WeatherDisplay:10.37,2013-08-03 21:33:00,
2013-08-03 17:36:00,85.7,69.2,29.98,West,261,7.7,11.5,58,0.00,OVC,,0.00,WeatherDisplay:10.37,2013-08-03 21:36:00,
2013-08-03 17:37:00,85.7,68.2,29.98,West,264,9.9,12.7,56,0.00,OVC,,0.00,WeatherDisplay:10.37,2013-08-03 21:37:00,
2013-08-03 17:38:00,85.9,68.9,29.98,West,277,10.5,11.5,57,0.00,OVC,,0.00,WeatherDisplay:10.37,2013-08-03 21:38:00,
2013-08-03 17:39:00,85.7,68.2,29.98,West,273,10.5,11.5,56,0.00,OVC,,0.00,WeatherDisplay:10.37,2013-08-03 21:39:00,
2013-08-03 17:40:00,85.7,68.2,29.98,WSW,258,7.4,11.5,56,0.00,OVC,,0.00,WeatherDisplay:10.37,2013-08-03 21:40:00,
2013-08-03 17:43:00,85.9,68.4,29.98,WSW,245,6.1,11.0,56,0.00,OVC,,0.00,WeatherDisplay:10.37,2013-08-03 21:43:00,
2013-08-03 17:44:00,85.9,68.4,29.98,WSW,252,8.7,9.0,56,0.00,OVC,,0.00,WeatherDisplay:10.37,2013-08-03 21:44:00,
2013-08-03 17:47:00,85.9,66.8,29.98,WSW,257,10.0,12.7,53,0.00,OVC,,0.00,WeatherDisplay:10.37,2013-08-03 21:47:00,
2013-08-03 17:48:00,85.9,68.4,29.98,West,267,7.8,12.7,56,0.00,OVC,,0.00,WeatherDisplay:10.37,2013-08-03 21:48:00,
2013-08-03 17:49:00,85.9,67.3,29.98,WSW,258,9.2,11.5,54,0.00,OVC,,0.00,WeatherDisplay:10.37,2013-08-03 21:49:00,
2013-08-03 17:50:00,85.9,66.2,29.98,WSW,249,10.4,11.5,52,0.00,OVC,,0.00,WeatherDisplay:10.37,2013-08-03 21:50:00,
2013-08-03 17:53:00,85.9,67.3,29.98,WSW,257,10.1,11.5,54,0.00,OVC,,0.00,WeatherDisplay:10.37,2013-08-03 21:53:00,
2013-08-03 17:55:00,85.9,67.3,29.98,WSW,258,7.5,13.8,54,0.00,OVC,,0.00,WeatherDisplay:10.37,2013-08-03 21:55:00,
2013-08-03 17:56:00,85.9,66.8,29.98,West,261,6.4,11.5,53,0.00,OVC,,0.00,WeatherDisplay:10.37,2013-08-03 21:56:00,
2013-08-03 18:00:00,85.7,66.6,29.98,WSW,240,9.5,13.0,53,0.00,OVC,,0.00,WeatherDisplay:10.37,2013-08-03 22:00:00,
2013-08-03 18:01:00,85.7,67.1,29.98,WSW,238,9.8,12.7,54,0.00,BKN,OVC,0.00,WeatherDisplay:10.37,2013-08-03 22:01:00,
2013-08-03 18:04:00,85.7,67.7,29.98,WSW,240,7.2,9.2,55,0.00,BKN,OVC,0.00,WeatherDisplay:10.37,2013-08-03 22:04:00,
2013-08-03 18:05:00,85.5,67.0,29.98,SW,236,8.8,13.0,54,0.00,BKN,OVC,0.00,WeatherDisplay:10.37,2013-08-03 22:05:00,
2013-08-03 18:06:00,85.5,67.0,29.98,WSW,239,11.1,12.7,54,0.00,BKN,OVC,0.00,WeatherDisplay:10.37,2013-08-03 22:06:00,
2013-08-03 18:07:00,85.5,67.5,29.98,WSW,244,10.3,13.8,55,0.00,BKN,OVC,0.00,WeatherDisplay:10.37,2013-08-03 22:07:00,
2013-08-03 18:09:00,85.5,68.0,29.98,WSW,240,6.5,13.8,56,0.00,BKN,OVC,0.00,WeatherDisplay:10.37,2013-08-03 22:09:00,
2013-08-03 18:11:00,85.5,68.0,29.98,WSW,252,7.3,10.0,56,0.00,BKN,OVC,0.00,WeatherDisplay:10.37,2013-08-03 22:11:00,
2013-08-03 18:12:00,85.5,67.5,29.98,WSW,250,9.2,11.5,55,0.00,BKN,OVC,0.00,WeatherDisplay:10.37,2013-08-03 22:12:00,
2013-08-03 18:14:00,85.5,68.0,29.98,WSW,250,5.1,6.9,56,0.00,BKN,OVC,0.00,WeatherDisplay:10.37,2013-08-03 22:14:00,
2013-08-03 18:17:00,85.1,67.1,29.98,WSW,247,7.3,10.4,55,0.00,BKN,OVC,0.00,WeatherDisplay:10.37,2013-08-03 22:17:00,
2013-08-03 18:19:00,85.1,67.6,29.98,WSW,244,6.7,11.5,56,0.00,BKN,OVC,0.00,WeatherDisplay:10.37,2013-08-03 22:19:00,
2013-08-03 18:20:00,85.1,67.6,29.98,WSW,257,6.4,11.5,56,0.00,BKN,OVC,0.00,WeatherDisplay:10.37,2013-08-03 22:20:00,
2013-08-03 18:22:00,85.1,67.6,29.98,WSW,252,6.0,10.4,56,0.00,BKN,OVC,0.00,WeatherDisplay:10.37,2013-08-03 22:22:00,
2013-08-03 18:25:00,85.1,68.2,29.97,WSW,247,6.0,11.5,57,0.00,BKN,OVC,0.00,WeatherDisplay:10.37,2013-08-03 22:25:00,
2013-08-03 18:26:00,85.1,68.7,29.97,WSW,250,4.3,9.2,58,0.00,BKN,OVC,0.00,WeatherDisplay:10.37,2013-08-03 22:26:00,
2013-08-03 18:27:00,85.1,69.2,29.97,WSW,250,3.3,3.5,59,0.00,BKN,OVC,0.00,WeatherDisplay:10.37,2013-08-03 22:27:00,
2013-08-03 18:28:00,85.1,69.2,29.97,WSW,250,3.7,5.0,59,0.00,BKN,OVC,0.00,WeatherDisplay:10.37,2013-08-03 22:28:00,
2013-08-03 18:30:00,85.1,68.7,29.97,WSW,249,4.2,4.6,58,0.00,BKN,OVC,0.00,WeatherDisplay:10.37,2013-08-03 22:30:00,
2013-08-03 18:32:00,85.3,68.8,29.97,WSW,249,4.5,5.8,58,0.00,BKN,OVC,0.00,WeatherDisplay:10.37,2013-08-03 22:32:00,
2013-08-03 18:33:00,85.1,68.7,29.97,WSW,249,5.1,6.0,58,0.00,BKN,OVC,0.00,WeatherDisplay:10.37,2013-08-03 22:33:00,
2013-08-03 18:35:00,85.1,68.7,29.97,WSW,249,3.5,3.5,58,0.00,BKN,OVC,0.00,WeatherDisplay:10.37,2013-08-03 22:35:00,
2013-08-03 18:38:00,84.9,68.5,29.97,WSW,252,5.4,6.9,58,0.00,BKN,OVC,0.00,WeatherDisplay:10.37,2013-08-03 22:38:00,
2013-08-03 18:39:00,84.7,68.8,29.97,WSW,252,5.4,5.8,59,0.00,BKN,OVC,0.00,WeatherDisplay:10.37,2013-08-03 22:39:00,
2013-08-03 18:40:00,84.7,69.3,29.97,WSW,252,3.0,5.8,60,0.00,BKN,OVC,0.00,WeatherDisplay:10.37,2013-08-03 22:40:00,
2013-08-03 18:41:00,84.5,69.1,29.97,WSW,252,3.1,3.5,60,0.00,BKN,OVC,0.00,WeatherDisplay:10.37,2013-08-03 22:41:00,
2013-08-03 18:42:00,84.5,69.6,29.97,WSW,252,3.7,5.0,61,0.00,BKN,OVC,0.00,WeatherDisplay:10.37,2013-08-03 22:42:00,
2013-08-03 18:44:00,84.3,69.4,29.97,WSW,252,4.2,5.8,61,0.00,BKN,OVC,0.00,WeatherDisplay:10.37,2013-08-03 22:44:00,
2013-08-03 18:45:00,84.3,69.4,29.97,WSW,252,4.1,5.8,61,0.00,BKN,OVC,0.00,WeatherDisplay:10.37,2013-08-03 22:45:00,
2013-08-03 18:46:00,84.3,69.9,29.97,WSW,252,4.3,5.8,62,0.00,BKN,OVC,0.00,WeatherDisplay:10.37,2013-08-03 22:46:00,
2013-08-03 18:47:00,84.3,69.9,29.97,WSW,252,3.5,5.8,62,0.00,BKN,OVC,0.00,WeatherDisplay:10.37,2013-08-03 22:47:00,
2013-08-03 18:49:00,84.5,69.1,29.97,WSW,252,4.4,6.0,60,0.00,BKN,OVC,0.00,WeatherDisplay:10.37,2013-08-03 22:49:00,
2013-08-03 18:52:00,84.7,70.2,29.97,WSW,252,2.7,4.0,62,0.00,BKN,OVC,0.00,WeatherDisplay:10.37,2013-08-03 22:52:00,
2013-08-03 18:53:00,84.7,69.8,29.97,WSW,252,3.9,5.0,61,0.00,BKN,OVC,0.00,WeatherDisplay:10.37,2013-08-03 22:53:00,
2013-08-03 18:54:00,84.7,69.8,29.97,WSW,252,3.7,5.0,61,0.00,BKN,OVC,0.00,WeatherDisplay:10.37,2013-08-03 22:54:00,
2013-08-03 18:57:00,84.7,69.8,29.97,WSW,252,3.7,5.8,61,0.00,BKN,OVC,0.00,WeatherDisplay:10.37,2013-08-03 22:57:00,
2013-08-03 18:58:00,84.7,69.3,29.97,WSW,252,3.1,5.8,60,0.00,BKN,OVC,0.00,WeatherDisplay:10.37,2013-08-03 22:58:00,
2013-08-03 19:00:00,84.7,68.3,29.97,WSW,251,7.1,8.1,58,0.00,BKN,OVC,0.00,WeatherDisplay:10.37,2013-08-03 23:00:00,
2013-08-03 19:03:00,84.5,69.1,29.97,SW,235,6.7,10.0,60,0.00,BKN,OVC,0.00,WeatherDisplay:10.37,2013-08-03 23:03:00,
2013-08-03 19:05:00,84.3,68.9,29.97,WSW,240,7.5,9.2,60,0.00,BKN,OVC,0.00,WeatherDisplay:10.37,2013-08-03 23:05:00,
2013-08-03 19:07:00,84.3,69.4,29.97,SW,231,7.0,11.5,61,0.00,BKN,OVC,0.00,WeatherDisplay:10.37,2013-08-03 23:07:00,
2013-08-03 19:10:00,84.1,68.7,29.97,WSW,238,6.8,7.0,60,0.00,BKN,OVC,0.00,WeatherDisplay:10.37,2013-08-03 23:10:00,
2013-08-03 19:11:00,84.1,69.7,29.97,WSW,240,5.2,9.2,62,0.00,BKN,OVC,0.00,WeatherDisplay:10.37,2013-08-03 23:11:00,
2013-08-03 19:12:00,84.1,70.1,29.97,WSW,240,3.9,9.2,63,0.00,BKN,OVC,0.00,WeatherDisplay:10.37,2013-08-03 23:12:00,
2013-08-03 19:13:00,84.1,70.1,29.97,WSW,242,4.3,5.8,63,0.00,BKN,OVC,0.00,WeatherDisplay:10.37,2013-08-03 23:13:00,
2013-08-03 19:15:00,84.1,69.7,29.97,WSW,242,4.6,6.0,62,0.00,BKN,OVC,0.00,WeatherDisplay:10.37,2013-08-03 23:15:00,
2013-08-03 19:17:00,84.1,70.1,29.97,WSW,242,3.5,4.6,63,0.00,BKN,OVC,0.00,WeatherDisplay:10.37,2013-08-03 23:17:00,
2013-08-03 19:18:00,84.1,70.1,29.97,WSW,242,3.8,4.6,63,0.00,BKN,OVC,0.00,WeatherDisplay:10.37,2013-08-03 23:18:00,
2013-08-03 19:21:00,84.1,70.6,29.97,WSW,242,2.2,3.5,64,0.00,BKN,OVC,0.00,WeatherDisplay:10.37,2013-08-03 23:21:00,
2013-08-03 19:22:00,84.1,70.1,29.97,WSW,242,1.9,3.5,63,0.00,BKN,OVC,0.00,WeatherDisplay:10.37,2013-08-03 23:22:00,
2013-08-03 19:23:00,84.1,70.6,29.97,WSW,242,1.7,3.5,64,0.00,BKN,OVC,0.00,WeatherDisplay:10.37,2013-08-03 23:23:00,
2013-08-03 19:25:00,84.0,70.5,29.97,WSW,242,2.9,3.5,64,0.00,BKN,OVC,0.00,WeatherDisplay:10.37,2013-08-03 23:25:00,
2013-08-03 19:27:00,84.0,71.0,29.97,WSW,242,3.0,4.0,65,0.00,BKN,OVC,0.00,WeatherDisplay:10.37,2013-08-03 23:27:00,
2013-08-03 19:28:00,84.0,71.0,29.97,WSW,242,3.0,3.5,65,0.00,BKN,OVC,0.00,WeatherDisplay:10.37,2013-08-03 23:28:00,
2013-08-03 19:29:00,83.8,70.8,29.97,WSW,242,3.1,3.5,65,0.00,BKN,OVC,0.00,WeatherDisplay:10.37,2013-08-03 23:29:00,
2013-08-03 19:30:00,83.8,70.8,29.97,WSW,242,2.0,5.0,65,0.00,BKN,OVC,0.00,WeatherDisplay:10.37,2013-08-03 23:30:00,
2013-08-03 19:33:00,83.4,70.4,29.97,WSW,242,3.7,5.0,65,0.00,BKN,OVC,0.00,WeatherDisplay:10.37,2013-08-03 23:33:00,
2013-08-03 19:34:00,83.2,69.8,29.97,WSW,242,3.2,5.0,64,0.00,BKN,OVC,0.00,WeatherDisplay:10.37,2013-08-03 23:34:00,
2013-08-03 19:38:00,82.8,69.4,29.97,WSW,247,4.9,5.8,64,0.00,BKN,OVC,0.00,WeatherDisplay:10.37,2013-08-03 23:38:00,
2013-08-03 19:39:00,82.8,69.4,29.97,WSW,250,4.8,5.8,64,0.00,BKN,OVC,0.00,WeatherDisplay:10.37,2013-08-03 23:39:00,
2013-08-03 19:42:00,82.4,69.0,29.97,WSW,252,4.4,5.8,64,0.00,BKN,OVC,0.00,WeatherDisplay:10.37,2013-08-03 23:42:00,
2013-08-03 19:43:00,82.4,69.4,29.97,WSW,252,3.9,6.0,65,0.00,BKN,OVC,0.00,WeatherDisplay:10.37,2013-08-03 23:43:00,
2013-08-03 19:44:00,82.2,68.8,29.97,WSW,252,4.1,5.8,64,0.00,BKN,OVC,0.00,WeatherDisplay:10.37,2013-08-03 23:44:00,
2013-08-03 19:45:00,82.2,69.3,29.97,WSW,252,3.6,5.8,65,0.00,BKN,OVC,0.00,WeatherDisplay:10.37,2013-08-03 23:45:00,
2013-08-03 19:48:00,82.0,68.6,29.97,WSW,253,4.4,4.6,64,0.00,BKN,OVC,0.00,WeatherDisplay:10.37,2013-08-03 23:48:00,
2013-08-03 19:49:00,82.0,68.6,29.97,WSW,253,3.6,4.6,64,0.00,BKN,OVC,0.00,WeatherDisplay:10.37,2013-08-03 23:49:00,
2013-08-03 19:52:00,81.8,68.4,29.97,WSW,253,5.3,6.9,64,0.00,BKN,OVC,0.00,WeatherDisplay:10.37,2013-08-03 23:52:00,
2013-08-03 19:53:00,81.8,68.4,29.98,WSW,253,4.4,5.8,64,0.00,BKN,OVC,0.00,WeatherDisplay:10.37,2013-08-03 23:53:00,
2013-08-03 19:54:00,81.8,68.4,29.98,WSW,253,4.0,4.6,64,0.00,BKN,OVC,0.00,WeatherDisplay:10.37,2013-08-03 23:54:00,
2013-08-03 19:55:00,81.8,68.9,29.98,WSW,253,3.8,4.6,65,0.00,BKN,OVC,0.00,WeatherDisplay:10.37,2013-08-03 23:55:00,
2013-08-03 19:59:00,81.6,68.7,29.98,WSW,253,2.6,3.5,65,0.00,BKN,OVC,0.00,WeatherDisplay:10.37,2013-08-03 23:59:00,
2013-08-03 20:00:00,81.4,68.9,29.98,WSW,253,2.5,3.5,66,0.00,BKN,OVC,0.00,WeatherDisplay:10.37,2013-08-04 00:00:00,
2013-08-03 20:01:00,81.4,69.4,29.98,WSW,253,2.3,3.5,67,0.00,BKN,OVC,0.00,WeatherDisplay:10.37,2013-08-04 00:01:00,
2013-08-03 20:04:00,81.2,69.6,29.98,WSW,253,2.1,3.5,68,0.00,BKN,OVC,0.00,WeatherDisplay:10.37,2013-08-04 00:04:00,
2013-08-03 20:05:00,81.2,69.6,29.98,WSW,253,2.1,3.5,68,0.00,BKN,OVC,0.00,WeatherDisplay:10.37,2013-08-04 00:05:00,
2013-08-03 20:08:00,81.2,70.5,29.98,WSW,253,1.3,2.3,70,0.00,BKN,OVC,0.00,WeatherDisplay:10.37,2013-08-04 00:08:00,
2013-08-03 20:11:00,81.1,70.8,29.98,WSW,253,1.5,2.3,71,0.00,BKN,OVC,0.00,WeatherDisplay:10.37,2013-08-04 00:11:00,
2013-08-03 20:15:00,80.7,70.8,29.98,WSW,253,1.0,2.3,72,0.00,BKN,OVC,0.00,WeatherDisplay:10.37,2013-08-04 00:15:00,
2013-08-03 20:17:00,80.5,71.0,29.98,WSW,253,1.5,2.3,73,0.00,BKN,OVC,0.00,WeatherDisplay:10.37,2013-08-04 00:17:00,
2013-08-03 20:20:00,80.3,70.0,29.98,WSW,253,2.2,3.5,71,0.00,BKN,OVC,0.00,WeatherDisplay:10.37,2013-08-04 00:20:00,
2013-08-03 20:21:00,80.3,70.4,29.98,WSW,253,2.0,3.5,72,0.00,BKN,OVC,0.00,WeatherDisplay:10.37,2013-08-04 00:21:00,
2013-08-03 20:22:00,80.1,70.3,29.98,WSW,253,1.7,3.5,72,0.00,BKN,OVC,0.00,WeatherDisplay:10.37,2013-08-04 00:22:00,
2013-08-03 20:23:00,80.1,69.8,29.98,WSW,253,1.9,3.5,71,0.00,BKN,OVC,0.00,WeatherDisplay:10.37,2013-08-04 00:23:00,
2013-08-03 20:24:00,80.1,69.8,29.98,WSW,253,1.9,3.5,71,0.00,BKN,OVC,0.00,WeatherDisplay:10.37,2013-08-04 00:24:00,
2013-08-03 20:26:00,80.1,69.8,29.98,WSW,253,2.0,2.3,71,0.00,BKN,OVC,0.00,WeatherDisplay:10.37,2013-08-04 00:26:00,
2013-08-03 20:29:00,80.1,69.4,29.98,WSW,253,1.9,2.3,70,0.00,BKN,OVC,0.00,WeatherDisplay:10.37,2013-08-04 00:29:00,
2013-08-03 20:31:00,80.1,69.4,29.98,WSW,253,2.0,3.5,70,0.00,BKN,OVC,0.00,WeatherDisplay:10.37,2013-08-04 00:31:00,
2013-08-03 20:32:00,80.1,69.8,29.98,WSW,253,0.2,2.3,71,0.00,BKN,OVC,0.00,WeatherDisplay:10.37,2013-08-04 00:32:00,
2013-08-03 20:33:00,80.1,69.8,29.98,WSW,253,0.0,0.0,71,0.00,BKN,OVC,0.00,WeatherDisplay:10.37,2013-08-04 00:33:00,
2013-08-03 20:36:00,79.9,70.1,29.98,WSW,253,0.0,0.0,72,0.00,BKN,OVC,0.00,WeatherDisplay:10.37,2013-08-04 00:36:00,
2013-08-03 20:37:00,79.9,70.5,29.98,WSW,253,0.0,0.0,73,0.00,BKN,OVC,0.00,WeatherDisplay:10.37,2013-08-04 00:37:00,
2013-08-03 20:39:00,79.9,71.3,29.98,WSW,253,0.0,0.0,75,0.00,BKN,OVC,0.00,WeatherDisplay:10.37,2013-08-04 00:39:00,
2013-08-03 20:40:00,79.8,71.6,29.98,WSW,253,0.0,0.0,76,0.00,BKN,OVC,0.00,WeatherDisplay:10.37,2013-08-04 00:40:00,
2013-08-03 20:42:00,79.4,71.6,29.98,WSW,253,0.0,0.0,77,0.00,BKN,OVC,0.00,WeatherDisplay:10.37,2013-08-04 00:42:00,
2013-08-03 20:43:00,79.4,71.6,29.98,WSW,253,0.0,0.0,77,0.00,BKN,OVC,0.00,WeatherDisplay:10.37,2013-08-04 00:43:00,
2013-08-03 20:44:00,79.2,71.7,29.98,WSW,253,0.0,0.0,78,0.00,BKN,OVC,0.00,WeatherDisplay:10.37,2013-08-04 00:44:00,
2013-08-03 20:48:00,78.6,71.5,29.98,WSW,253,0.0,0.0,79,0.00,BKN,OVC,0.00,WeatherDisplay:10.37,2013-08-04 00:48:00,
2013-08-03 20:49:00,78.6,71.5,29.98,WSW,253,0.0,0.0,79,0.00,BKN,OVC,0.00,WeatherDisplay:10.37,2013-08-04 00:49:00,
2013-08-03 20:50:00,78.5,71.4,29.98,WSW,253,0.0,0.0,79,0.00,BKN,OVC,0.00,WeatherDisplay:10.37,2013-08-04 00:50:00,
2013-08-03 20:53:00,78.1,71.4,29.98,WSW,253,0.0,0.0,80,0.00,BKN,OVC,0.00,WeatherDisplay:10.37,2013-08-04 00:53:00,
2013-08-03 20:54:00,78.1,71.4,29.98,WSW,253,0.0,0.0,80,0.00,BKN,OVC,0.00,WeatherDisplay:10.37,2013-08-04 00:54:00,
2013-08-03 20:55:00,78.1,71.4,29.98,WSW,253,0.0,0.0,80,0.00,BKN,OVC,0.00,WeatherDisplay:10.37,2013-08-04 00:55:00,
2013-08-03 20:56:00,77.9,71.2,29.98,WSW,253,0.0,0.0,80,0.00,BKN,OVC,0.00,WeatherDisplay:10.37,2013-08-04 00:56:00,
2013-08-03 20:59:00,77.9,70.9,29.98,WSW,253,0.0,0.0,79,0.00,BKN,OVC,0.00,WeatherDisplay:10.37,2013-08-04 00:59:00,
2013-08-03 21:00:00,77.9,70.9,29.98,WSW,253,0.0,0.0,79,0.00,BKN,OVC,0.00,WeatherDisplay:10.37,2013-08-04 01:00:00,
2013-08-03 21:01:00,77.9,70.9,29.98,WSW,253,0.0,0.0,79,0.00,BKN,OVC,0.00,WeatherDisplay:10.37,2013-08-04 01:01:00,
2013-08-03 21:02:00,77.9,70.9,29.98,WSW,253,0.0,0.0,79,0.00,BKN,OVC,0.00,WeatherDisplay:10.37,2013-08-04 01:02:00,
2013-08-03 21:06:00,77.9,71.2,29.98,WSW,253,0.0,0.0,80,0.00,BKN,OVC,0.00,WeatherDisplay:10.37,2013-08-04 01:06:00,
2013-08-03 21:07:00,77.7,71.0,29.99,WSW,253,0.0,0.0,80,0.00,BKN,OVC,0.00,WeatherDisplay:10.37,2013-08-04 01:07:00,
2013-08-03 21:09:00,77.7,71.0,29.99,WSW,253,0.0,0.0,80,0.00,BKN,OVC,0.00,WeatherDisplay:10.37,2013-08-04 01:09:00,
2013-08-03 21:10:00,77.7,71.0,29.99,WSW,253,0.0,0.0,80,0.00,BKN,OVC,0.00,WeatherDisplay:10.37,2013-08-04 01:10:00,
2013-08-03 21:12:00,77.7,71.4,29.99,WSW,253,0.0,0.0,81,0.00,BKN,OVC,0.00,WeatherDisplay:10.37,2013-08-04 01:12:00,
2013-08-03 21:13:00,77.6,71.3,29.99,WSW,253,0.0,0.0,81,0.00,BKN,OVC,0.00,WeatherDisplay:10.37,2013-08-04 01:13:00,
2013-08-03 21:14:00,77.6,71.3,29.99,WSW,253,0.0,0.0,81,0.00,BKN,OVC,0.00,WeatherDisplay:10.37,2013-08-04 01:14:00,
2013-08-03 21:15:00,77.6,71.3,29.99,WSW,253,0.0,0.0,81,0.00,BKN,OVC,0.00,WeatherDisplay:10.37,2013-08-04 01:15:00,
2013-08-03 21:16:00,77.4,71.1,29.99,WSW,253,0.0,0.0,81,0.00,BKN,OVC,0.00,WeatherDisplay:10.37,2013-08-04 01:16:00,
2013-08-03 21:18:00,77.4,71.1,29.99,WSW,253,0.0,0.0,81,0.00,BKN,OVC,0.00,WeatherDisplay:10.37,2013-08-04 01:18:00,
2013-08-03 21:20:00,77.2,70.9,29.99,WSW,253,0.0,0.0,81,0.00,BKN,OVC,0.00,WeatherDisplay:10.37,2013-08-04 01:20:00,
2013-08-03 21:21:00,77.2,70.9,29.99,WSW,253,0.0,0.0,81,0.00,BKN,OVC,0.00,WeatherDisplay:10.37,2013-08-04 01:21:00,
2013-08-03 21:23:00,77.0,70.7,29.99,WSW,253,0.0,0.0,81,0.00,BKN,OVC,0.00,WeatherDisplay:10.37,2013-08-04 01:23:00,
2013-08-03 21:25:00,77.0,70.7,29.99,WSW,253,0.0,0.0,81,0.00,BKN,OVC,0.00,WeatherDisplay:10.37,2013-08-04 01:25:00,
2013-08-03 21:27:00,76.8,70.5,29.99,WSW,253,0.0,0.0,81,0.00,BKN,OVC,0.00,WeatherDisplay:10.37,2013-08-04 01:27:00,
2013-08-03 21:29:00,76.8,70.5,29.99,WSW,253,0.0,0.0,81,0.00,BKN,OVC,0.00,WeatherDisplay:10.37,2013-08-04 01:29:00,
2013-08-03 21:30:00,76.7,70.4,29.99,WSW,253,0.0,0.0,81,0.00,BKN,OVC,0.00,WeatherDisplay:10.37,2013-08-04 01:30:00,
2013-08-03 21:31:00,76.7,70.4,29.99,WSW,253,0.0,0.0,81,0.00,BKN,OVC,0.00,WeatherDisplay:10.37,2013-08-04 01:31:00,
2013-08-03 21:33:00,76.7,70.4,29.99,WSW,253,0.0,0.0,81,0.00,BKN,OVC,0.00,WeatherDisplay:10.37,2013-08-04 01:33:00,
2013-08-03 21:34:00,76.7,70.4,29.99,WSW,253,0.0,0.0,81,0.00,BKN,OVC,0.00,WeatherDisplay:10.37,2013-08-04 01:34:00,
2013-08-03 21:37:00,76.5,70.2,29.99,WSW,253,0.0,0.0,81,0.00,BKN,OVC,0.00,WeatherDisplay:10.37,2013-08-04 01:37:00,
2013-08-03 21:40:00,76.3,70.4,29.99,WSW,253,0.0,0.0,82,0.00,BKN,OVC,0.00,WeatherDisplay:10.37,2013-08-04 01:40:00,
2013-08-03 21:42:00,76.1,70.6,29.99,WSW,253,0.0,0.0,83,0.00,BKN,OVC,0.00,WeatherDisplay:10.37,2013-08-04 01:42:00,
2013-08-03 21:43:00,76.0,70.5,29.99,WSW,253,0.0,0.0,83,0.00,BKN,OVC,0.00,WeatherDisplay:10.37,2013-08-04 01:43:00,
2013-08-03 21:44:00,76.0,70.8,29.99,WSW,253,0.0,0.0,84,0.00,BKN,OVC,0.00,WeatherDisplay:10.37,2013-08-04 01:44:00,
2013-08-03 21:45:00,76.0,70.8,29.99,WSW,253,0.0,0.0,84,0.00,BKN,OVC,0.00,WeatherDisplay:10.37,2013-08-04 01:45:00,
2013-08-03 21:47:00,75.8,70.6,29.99,WSW,253,0.0,0.0,84,0.00,BKN,OVC,0.00,WeatherDisplay:10.37,2013-08-04 01:47:00,
2013-08-03 21:50:00,75.6,70.8,29.99,WSW,253,0.0,0.0,85,0.00,BKN,OVC,0.00,WeatherDisplay:10.37,2013-08-04 01:50:00,
2013-08-03 21:51:00,75.4,70.6,29.99,WSW,253,0.0,0.0,85,0.00,BKN,OVC,0.00,WeatherDisplay:10.37,2013-08-04 01:51:00,
2013-08-03 21:52:00,75.4,70.6,29.99,WSW,253,0.0,0.0,85,0.00,BKN,OVC,0.00,WeatherDisplay:10.37,2013-08-04 01:52:00,
2013-08-03 21:53:00,75.4,70.6,29.99,WSW,253,0.0,0.0,85,0.00,BKN,OVC,0.00,WeatherDisplay:10.37,2013-08-04 01:53:00,
2013-08-03 21:57:00,75.4,70.6,30.00,WSW,253,0.0,0.0,85,0.00,BKN,OVC,0.00,WeatherDisplay:10.37,2013-08-04 01:57:00,
2013-08-03 21:58:00,75.4,70.6,30.00,WSW,253,0.0,0.0,85,0.00,BKN,OVC,0.00,WeatherDisplay:10.37,2013-08-04 01:58:00,
2013-08-03 22:00:00,75.3,70.5,30.00,WSW,253,0.0,0.0,85,0.00,BKN,OVC,0.00,WeatherDisplay:10.37,2013-08-04 02:00:00,
2013-08-03 22:03:00,75.3,70.5,30.00,WSW,253,0.0,0.0,85,0.00,SCT,OVC,0.00,WeatherDisplay:10.37,2013-08-04 02:03:00,
2013-08-03 22:04:00,75.3,70.5,30.00,WSW,253,0.0,0.0,85,0.00,SCT,OVC,0.00,WeatherDisplay:10.37,2013-08-04 02:04:00,
2013-08-03 22:05:00,75.3,70.8,30.00,WSW,253,0.0,0.0,86,0.00,SCT,OVC,0.00,WeatherDisplay:10.37,2013-08-04 02:05:00,
2013-08-03 22:08:00,75.3,70.8,30.00,WSW,253,0.0,0.0,86,0.00,SCT,OVC,0.00,WeatherDisplay:10.37,2013-08-04 02:08:00,
2013-08-03 22:10:00,75.1,70.6,30.00,WSW,253,0.0,0.0,86,0.00,SCT,OVC,0.00,WeatherDisplay:10.37,2013-08-04 02:10:00,
2013-08-03 22:11:00,75.1,70.6,30.00,WSW,253,0.0,0.0,86,0.00,SCT,OVC,0.00,WeatherDisplay:10.37,2013-08-04 02:11:00,
2013-08-03 22:12:00,75.1,70.6,30.00,WSW,253,0.0,0.0,86,0.00,SCT,OVC,0.00,WeatherDisplay:10.37,2013-08-04 02:12:00,
2013-08-03 22:14:00,75.1,70.6,30.00,WSW,253,0.0,0.0,86,0.00,SCT,OVC,0.00,WeatherDisplay:10.37,2013-08-04 02:14:00,
2013-08-03 22:15:00,75.1,70.6,30.00,WSW,253,0.0,0.0,86,0.00,SCT,OVC,0.00,WeatherDisplay:10.37,2013-08-04 02:15:00,
2013-08-03 22:17:00,75.1,71.0,30.00,WSW,253,0.0,0.0,87,0.00,SCT,OVC,0.00,WeatherDisplay:10.37,2013-08-04 02:17:00,
2013-08-03 22:19:00,74.9,70.8,30.00,WSW,253,0.0,0.0,87,0.00,SCT,OVC,0.00,WeatherDisplay:10.37,2013-08-04 02:19:00,
2013-08-03 22:20:00,74.9,70.8,30.00,WSW,253,0.0,0.0,87,0.00,SCT,OVC,0.00,WeatherDisplay:10.37,2013-08-04 02:20:00,
2013-08-03 22:21:00,74.9,70.8,30.00,WSW,253,0.0,0.0,87,0.00,SCT,OVC,0.00,WeatherDisplay:10.37,2013-08-04 02:21:00,
2013-08-03 22:22:00,74.7,70.6,30.00,WSW,253,0.0,0.0,87,0.00,SCT,OVC,0.00,WeatherDisplay:10.37,2013-08-04 02:22:00,
2013-08-03 22:25:00,74.7,70.9,30.00,WSW,253,0.0,0.0,88,0.00,SCT,OVC,0.00,WeatherDisplay:10.37,2013-08-04 02:25:00,
2013-08-03 22:26:00,74.7,70.9,30.00,WSW,253,0.0,0.0,88,0.00,SCT,OVC,0.00,WeatherDisplay:10.37,2013-08-04 02:26:00,
2013-08-03 22:27:00,74.6,70.8,30.00,WSW,253,0.0,0.0,88,0.00,SCT,OVC,0.00,WeatherDisplay:10.37,2013-08-04 02:27:00,
2013-08-03 22:30:00,74.6,70.8,30.00,WSW,253,0.0,0.0,88,0.00,SCT,OVC,0.00,WeatherDisplay:10.37,2013-08-04 02:30:00,
2013-08-03 22:31:00,74.4,70.6,30.00,WSW,253,0.0,0.0,88,0.00,SCT,OVC,0.00,WeatherDisplay:10.37,2013-08-04 02:31:00,
2013-08-03 22:33:00,74.4,70.6,30.00,WSW,253,0.0,0.0,88,0.00,SCT,OVC,0.00,WeatherDisplay:10.37,2013-08-04 02:33:00,
2013-08-03 22:35:00,74.2,70.4,30.00,WSW,253,0.0,0.0,88,0.00,SCT,OVC,0.00,WeatherDisplay:10.37,2013-08-04 02:35:00,
2013-08-03 22:38:00,74.0,70.2,30.00,WSW,253,0.0,0.0,88,0.00,SCT,OVC,0.00,WeatherDisplay:10.37,2013-08-04 02:38:00,
2013-08-03 22:39:00,74.0,70.6,30.00,WSW,253,0.0,0.0,89,0.00,SCT,OVC,0.00,WeatherDisplay:10.37,2013-08-04 02:39:00,
2013-08-03 22:43:00,74.0,70.6,30.00,WSW,253,0.0,0.0,89,0.00,SCT,OVC,0.00,WeatherDisplay:10.37,2013-08-04 02:43:00,
2013-08-03 22:45:00,73.9,70.5,30.00,WSW,253,0.0,0.0,89,0.00,SCT,OVC,0.00,WeatherDisplay:10.37,2013-08-04 02:45:00,
2013-08-03 22:47:00,73.7,70.3,30.00,WSW,253,0.0,0.0,89,0.00,SCT,OVC,0.00,WeatherDisplay:10.37,2013-08-04 02:47:00,
2013-08-03 22:49:00,73.7,70.6,30.00,WSW,253,0.0,0.0,90,0.00,SCT,OVC,0.00,WeatherDisplay:10.37,2013-08-04 02:49:00,
2013-08-03 22:50:00,73.5,70.4,30.00,WSW,253,0.0,0.0,90,0.00,SCT,OVC,0.00,WeatherDisplay:10.37,2013-08-04 02:50:00,
2013-08-03 22:51:00,73.5,70.4,30.00,WSW,253,0.0,0.0,90,0.00,SCT,OVC,0.00,WeatherDisplay:10.37,2013-08-04 02:51:00,
2013-08-03 22:55:00,73.3,70.2,30.00,WSW,253,0.0,0.0,90,0.00,SCT,OVC,0.00,WeatherDisplay:10.37,2013-08-04 02:55:00,
2013-08-03 22:56:00,73.3,70.5,30.00,WSW,253,0.0,0.0,91,0.00,SCT,OVC,0.00,WeatherDisplay:10.37,2013-08-04 02:56:00,
2013-08-03 22:58:00,73.3,70.5,30.00,WSW,253,0.0,0.0,91,0.00,SCT,OVC,0.00,WeatherDisplay:10.37,2013-08-04 02:58:00,
2013-08-03 23:00:00,73.2,70.4,30.00,WSW,253,0.0,0.0,91,0.00,SCT,OVC,0.00,WeatherDisplay:10.37,2013-08-04 03:00:00,
2013-08-03 23:01:00,73.2,70.1,30.00,WSW,253,0.0,0.0,90,0.00,FEW,OVC,0.00,WeatherDisplay:10.37,2013-08-04 03:01:00,
2013-08-03 23:02:00,73.2,70.1,30.00,WSW,253,0.0,0.0,90,0.00,FEW,OVC,0.00,WeatherDisplay:10.37,2013-08-04 03:02:00,
2013-08-03 23:04:00,73.0,70.2,30.00,WSW,253,0.0,0.0,91,0.00,FEW,OVC,0.00,WeatherDisplay:10.37,2013-08-04 03:04:00,
2013-08-03 23:05:00,73.0,70.2,30.00,WSW,253,0.0,0.0,91,0.00,FEW,OVC,0.00,WeatherDisplay:10.37,2013-08-04 03:05:00,
2013-08-03 23:07:00,73.0,70.2,30.00,WSW,253,0.0,0.0,91,0.00,FEW,OVC,0.00,WeatherDisplay:10.37,2013-08-04 03:07:00,
2013-08-03 23:09:00,73.0,70.2,30.00,WSW,253,0.0,0.0,91,0.00,FEW,OVC,0.00,WeatherDisplay:10.37,2013-08-04 03:09:00,
2013-08-03 23:11:00,73.0,70.2,30.00,WSW,253,0.0,0.0,91,0.00,FEW,OVC,0.00,WeatherDisplay:10.37,2013-08-04 03:11:00,
2013-08-03 23:12:00,73.0,70.2,30.00,WSW,253,0.0,0.0,91,0.00,FEW,OVC,0.00,WeatherDisplay:10.37,2013-08-04 03:12:00,
2013-08-03 23:13:00,73.0,70.2,30.00,WSW,253,0.0,0.0,91,0.00,FEW,OVC,0.00,WeatherDisplay:10.37,2013-08-04 03:13:00,
2013-08-03 23:15:00,73.2,70.4,30.00,WSW,253,0.0,0.0,91,0.00,FEW,OVC,0.00,WeatherDisplay:10.37,2013-08-04 03:15:00,
2013-08-03 23:17:00,73.2,70.4,30.00,WSW,253,0.0,0.0,91,0.00,FEW,OVC,0.00,WeatherDisplay:10.37,2013-08-04 03:17:00,
2013-08-03 23:18:00,73.2,70.4,30.00,WSW,253,0.0,0.0,91,0.00,FEW,OVC,0.00,WeatherDisplay:10.37,2013-08-04 03:18:00,
2013-08-03 23:20:00,73.2,70.4,30.00,WSW,253,0.0,0.0,91,0.00,FEW,OVC,0.00,WeatherDisplay:10.37,2013-08-04 03:20:00,
2013-08-03 23:21:00,73.2,70.4,30.00,WSW,253,0.0,0.0,91,0.00,FEW,OVC,0.00,WeatherDisplay:10.37,2013-08-04 03:21:00,
2013-08-03 23:22:00,73.2,70.4,30.00,WSW,253,0.0,0.0,91,0.00,FEW,OVC,0.00,WeatherDisplay:10.37,2013-08-04 03:22:00,
2013-08-03 23:23:00,73.2,70.4,30.00,WSW,253,0.0,0.0,91,0.00,FEW,OVC,0.00,WeatherDisplay:10.37,2013-08-04 03:23:00,
2013-08-03 23:24:00,73.2,70.4,30.00,WSW,253,0.0,0.0,91,0.00,FEW,OVC,0.00,WeatherDisplay:10.37,2013-08-04 03:24:00,
2013-08-03 23:25:00,73.3,70.5,30.00,WSW,253,0.0,0.0,91,0.00,FEW,OVC,0.00,WeatherDisplay:10.37,2013-08-04 03:25:00,
2013-08-03 23:26:00,73.3,70.5,30.00,WSW,253,0.0,0.0,91,0.00,FEW,OVC,0.00,WeatherDisplay:10.37,2013-08-04 03:26:00,
2013-08-03 23:28:00,73.3,70.2,30.00,WSW,253,0.0,0.0,90,0.00,FEW,OVC,0.00,WeatherDisplay:10.37,2013-08-04 03:28:00,
2013-08-03 23:30:00,73.3,70.2,30.00,WSW,253,0.0,0.0,90,0.00,FEW,OVC,0.00,WeatherDisplay:10.37,2013-08-04 03:30:00,
2013-08-03 23:31:00,73.3,70.2,30.00,WSW,253,0.0,0.0,90,0.00,FEW,OVC,0.00,WeatherDisplay:10.37,2013-08-04 03:31:00,
2013-08-03 23:34:00,73.3,70.2,30.00,WSW,253,0.0,0.0,90,0.00,FEW,OVC,0.00,WeatherDisplay:10.37,2013-08-04 03:34:00,
2013-08-03 23:35:00,73.3,70.2,30.00,WSW,253,0.0,0.0,90,0.00,FEW,OVC,0.00,WeatherDisplay:10.37,2013-08-04 03:35:00,
2013-08-03 23:36:00,73.2,70.1,30.00,WSW,253,0.0,0.0,90,0.00,FEW,OVC,0.00,WeatherDisplay:10.37,2013-08-04 03:36:00,
2013-08-03 23:39:00,73.2,70.4,30.00,WSW,253,0.0,0.0,91,0.00,FEW,OVC,0.00,WeatherDisplay:10.37,2013-08-04 03:39:00,
2013-08-03 23:40:00,73.2,70.4,30.00,WSW,253,0.0,0.0,91,0.00,FEW,OVC,0.00,WeatherDisplay:10.37,2013-08-04 03:40:00,
2013-08-03 23:41:00,73.2,70.4,30.00,WSW,253,0.0,0.0,91,0.00,FEW,OVC,0.00,WeatherDisplay:10.37,2013-08-04 03:41:00,
2013-08-03 23:43:00,73.0,70.2,30.00,WSW,253,0.0,0.0,91,0.00,FEW,OVC,0.00,WeatherDisplay:10.37,2013-08-04 03:43:00,
2013-08-03 23:47:00,72.8,70.0,30.00,WSW,253,3.2,3.5,91,0.00,FEW,OVC,0.00,WeatherDisplay:10.37,2013-08-04 03:47:00,
2013-08-03 23:48:00,72.8,70.0,30.00,WSW,253,2.9,3.5,91,0.00,FEW,OVC,0.00,WeatherDisplay:10.37,2013-08-04 03:48:00,
2013-08-03 23:50:00,73.0,70.2,30.00,WSW,253,2.7,3.5,91,0.00,FEW,OVC,0.00,WeatherDisplay:10.37,2013-08-04 03:50:00,
2013-08-03 23:52:00,73.0,70.2,30.00,WSW,253,3.2,3.5,91,0.00,FEW,OVC,0.00,WeatherDisplay:10.37,2013-08-04 03:52:00,
2013-08-03 23:53:00,73.0,70.2,30.00,WSW,253,2.8,3.5,91,0.00,FEW,OVC,0.00,WeatherDisplay:10.37,2013-08-04 03:53:00,
2013-08-03 23:56:00,72.8,70.0,30.00,WSW,253,2.7,3.5,91,0.00,FEW,OVC,0.00,WeatherDisplay:10.37,2013-08-04 03:56:00,
2013-08-03 23:58:00,72.8,70.0,30.00,WSW,253,2.5,3.5,91,0.00,FEW,OVC,0.00,WeatherDisplay:10.37,2013-08-04 03:58:00,
2013-08-03 23:59:00,72.8,70.0,30.00,WSW,253,2.5,3.5,91,0.00,FEW,OVC,0.00,WeatherDisplay:10.37,2013-08-04 03:59:00,